<?xml version="1.0" encoding="UTF-8" standalone="no" ?>
<gpx xmlns="http://www.topografix.com/GPX/1/1" xmlns:xsi="http://www.w3.org/2001/XMLSchema-instance" xsi:schemaLocation="http://www.topografix.com/GPX/1/1 http://www.topografix.com/GPX/1/1/gpx.xsd" version="1.1" creator="VisuGPX - https://www.visugpx.com">
  <metadata>
    <name>PONTIGAUD-CONDAT</name>
    <desc><![CDATA[JOUR 2]]></desc>
  </metadata>
  <trk>
    <name><![CDATA[PONTIGAUD-CONDAT_1]]></name>
    <trkseg>
      <trkpt lat="45.83302" lon="2.85636">
        <ele>707.8</ele>
        <time>2017-03-24T15:54:15Z</time>
      </trkpt>
      <trkpt lat="45.83214" lon="2.8528">
        <ele>689</ele>
        <time>2017-03-24T16:30:35Z</time>
      </trkpt>
      <trkpt lat="45.83214" lon="2.85194">
        <ele>679.5</ele>
        <time>2017-03-24T16:30:15Z</time>
      </trkpt>
      <trkpt lat="45.83222" lon="2.85133">
        <ele>674.3</ele>
        <time>2017-03-24T16:29:55Z</time>
      </trkpt>
      <trkpt lat="45.83255" lon="2.85074">
        <ele>671.7</ele>
        <time>2017-03-24T16:29:35Z</time>
      </trkpt>
      <trkpt lat="45.83308" lon="2.84989">
        <ele>669.9</ele>
        <time>2017-03-24T16:29:15Z</time>
      </trkpt>
      <trkpt lat="45.83336" lon="2.8487">
        <ele>678.6</ele>
        <time>2017-03-24T16:28:55Z</time>
      </trkpt>
      <trkpt lat="45.83346" lon="2.84869">
        <ele>679.2</ele>
        <time>2017-03-24T16:28:35Z</time>
      </trkpt>
      <trkpt lat="45.83317" lon="2.84986">
        <ele>670</ele>
        <time>2017-03-24T16:28:15Z</time>
      </trkpt>
      <trkpt lat="45.8324" lon="2.85115">
        <ele>673.8</ele>
        <time>2017-03-24T16:27:55Z</time>
      </trkpt>
      <trkpt lat="45.83221" lon="2.85173">
        <ele>678.8</ele>
        <time>2017-03-24T16:27:35Z</time>
      </trkpt>
      <trkpt lat="45.83221" lon="2.85274">
        <ele>688.1</ele>
        <time>2017-03-24T16:27:15Z</time>
      </trkpt>
      <trkpt lat="45.83379" lon="2.85915">
        <ele>719.1</ele>
        <time>2017-03-24T16:26:55Z</time>
      </trkpt>
      <trkpt lat="45.83376" lon="2.86058">
        <ele>723.2</ele>
        <time>2017-03-24T16:26:35Z</time>
      </trkpt>
      <trkpt lat="45.83456" lon="2.86298">
        <ele>725</ele>
        <time>2017-03-24T16:26:15Z</time>
      </trkpt>
      <trkpt lat="45.83477" lon="2.86393">
        <ele>726</ele>
        <time>2017-03-24T16:25:55Z</time>
      </trkpt>
      <trkpt lat="45.83502" lon="2.86484">
        <ele>732</ele>
        <time>2017-03-24T16:25:35Z</time>
      </trkpt>
      <trkpt lat="45.83513" lon="2.86487">
        <ele>732</ele>
        <time>2017-03-24T16:25:15Z</time>
      </trkpt>
      <trkpt lat="45.83531" lon="2.86509">
        <ele>735</ele>
        <time>2017-03-24T16:24:55Z</time>
      </trkpt>
      <trkpt lat="45.8358" lon="2.86499">
        <ele>738</ele>
        <time>2017-03-24T16:24:35Z</time>
      </trkpt>
      <trkpt lat="45.83628" lon="2.86505">
        <ele>747</ele>
        <time>2017-03-24T16:24:15Z</time>
      </trkpt>
      <trkpt lat="45.83675" lon="2.86487">
        <ele>752</ele>
        <time>2017-03-24T16:23:55Z</time>
      </trkpt>
      <trkpt lat="45.83728" lon="2.86486">
        <ele>751</ele>
        <time>2017-03-24T16:23:35Z</time>
      </trkpt>
      <trkpt lat="45.83773" lon="2.86415">
        <ele>750</ele>
        <time>2017-03-24T16:23:15Z</time>
      </trkpt>
      <trkpt lat="45.83864" lon="2.86344">
        <ele>749</ele>
        <time>2017-03-24T16:22:55Z</time>
      </trkpt>
      <trkpt lat="45.83895" lon="2.86348">
        <ele>749</ele>
        <time>2017-03-24T16:22:35Z</time>
      </trkpt>
      <trkpt lat="45.83944" lon="2.86296">
        <ele>745</ele>
        <time>2017-03-24T16:22:15Z</time>
      </trkpt>
      <trkpt lat="45.83969" lon="2.86331">
        <ele>744</ele>
        <time>2017-03-24T16:21:55Z</time>
      </trkpt>
      <trkpt lat="45.83987" lon="2.86341">
        <ele>745</ele>
        <time>2017-03-24T16:21:35Z</time>
      </trkpt>
      <trkpt lat="45.84047" lon="2.86318">
        <ele>739</ele>
        <time>2017-03-24T16:21:15Z</time>
      </trkpt>
      <trkpt lat="45.84069" lon="2.86255">
        <ele>737</ele>
        <time>2017-03-24T16:20:55Z</time>
      </trkpt>
      <trkpt lat="45.84108" lon="2.86195">
        <ele>737</ele>
        <time>2017-03-24T16:20:35Z</time>
      </trkpt>
      <trkpt lat="45.84151" lon="2.86189">
        <ele>739</ele>
        <time>2017-03-24T16:20:15Z</time>
      </trkpt>
      <trkpt lat="45.8418" lon="2.86196">
        <ele>741</ele>
        <time>2017-03-24T16:19:55Z</time>
      </trkpt>
      <trkpt lat="45.84296" lon="2.86211">
        <ele>741</ele>
        <time>2017-03-24T16:19:35Z</time>
      </trkpt>
      <trkpt lat="45.84365" lon="2.86259">
        <ele>737</ele>
        <time>2017-03-24T16:19:15Z</time>
      </trkpt>
      <trkpt lat="45.84451" lon="2.86277">
        <ele>730</ele>
        <time>2017-03-24T16:18:55Z</time>
      </trkpt>
      <trkpt lat="45.84487" lon="2.86317">
        <ele>730</ele>
        <time>2017-03-24T16:18:35Z</time>
      </trkpt>
      <trkpt lat="45.84513" lon="2.86362">
        <ele>733</ele>
        <time>2017-03-24T16:18:15Z</time>
      </trkpt>
      <trkpt lat="45.8459" lon="2.86361">
        <ele>731</ele>
        <time>2017-03-24T16:17:55Z</time>
      </trkpt>
      <trkpt lat="45.84604" lon="2.86396">
        <ele>734</ele>
        <time>2017-03-24T16:17:35Z</time>
      </trkpt>
      <trkpt lat="45.84627" lon="2.86444">
        <ele>740</ele>
        <time>2017-03-24T16:17:15Z</time>
      </trkpt>
      <trkpt lat="45.84657" lon="2.86479">
        <ele>740</ele>
        <time>2017-03-24T16:16:55Z</time>
      </trkpt>
      <trkpt lat="45.84722" lon="2.86611">
        <ele>751</ele>
        <time>2017-03-24T16:16:35Z</time>
      </trkpt>
      <trkpt lat="45.84666" lon="2.86701">
        <ele>759</ele>
        <time>2017-03-24T16:16:15Z</time>
      </trkpt>
      <trkpt lat="45.84634" lon="2.86985">
        <ele>776</ele>
        <time>2017-03-24T16:15:55Z</time>
      </trkpt>
      <trkpt lat="45.84685" lon="2.87342">
        <ele>782</ele>
        <time>2017-03-24T16:15:35Z</time>
      </trkpt>
      <trkpt lat="45.84683" lon="2.87549">
        <ele>775</ele>
        <time>2017-03-24T16:15:15Z</time>
      </trkpt>
      <trkpt lat="45.84689" lon="2.87649">
        <ele>775</ele>
        <time>2017-03-24T16:14:55Z</time>
      </trkpt>
      <trkpt lat="45.84676" lon="2.87901">
        <ele>785</ele>
        <time>2017-03-24T16:14:35Z</time>
      </trkpt>
      <trkpt lat="45.84635" lon="2.88111">
        <ele>784</ele>
        <time>2017-03-24T16:14:15Z</time>
      </trkpt>
      <trkpt lat="45.8464" lon="2.88228">
        <ele>787</ele>
        <time>2017-03-24T16:13:55Z</time>
      </trkpt>
      <trkpt lat="45.84664" lon="2.88339">
        <ele>791</ele>
        <time>2017-03-24T16:13:35Z</time>
      </trkpt>
      <trkpt lat="45.84735" lon="2.88525">
        <ele>792</ele>
        <time>2017-03-24T16:13:15Z</time>
      </trkpt>
      <trkpt lat="45.84782" lon="2.88709">
        <ele>796</ele>
        <time>2017-03-24T16:12:55Z</time>
      </trkpt>
      <trkpt lat="45.84806" lon="2.88844">
        <ele>801</ele>
        <time>2017-03-24T16:12:35Z</time>
      </trkpt>
      <trkpt lat="45.84907" lon="2.89003">
        <ele>804</ele>
        <time>2017-03-24T16:12:15Z</time>
      </trkpt>
      <trkpt lat="45.84889" lon="2.89104">
        <ele>810</ele>
        <time>2017-03-24T16:11:55Z</time>
      </trkpt>
      <trkpt lat="45.84879" lon="2.89229">
        <ele>815</ele>
        <time>2017-03-24T16:11:35Z</time>
      </trkpt>
      <trkpt lat="45.84864" lon="2.89278">
        <ele>816</ele>
        <time>2017-03-24T16:11:15Z</time>
      </trkpt>
      <trkpt lat="45.84891" lon="2.89422">
        <ele>815</ele>
        <time>2017-03-24T16:10:55Z</time>
      </trkpt>
      <trkpt lat="45.84823" lon="2.89641">
        <ele>808</ele>
        <time>2017-03-24T16:10:35Z</time>
      </trkpt>
      <trkpt lat="45.84835" lon="2.89756">
        <ele>809</ele>
        <time>2017-03-24T16:10:15Z</time>
      </trkpt>
      <trkpt lat="45.84752" lon="2.89812">
        <ele>809</ele>
        <time>2017-03-24T16:09:55Z</time>
      </trkpt>
      <trkpt lat="45.84691" lon="2.8992">
        <ele>821</ele>
        <time>2017-03-24T16:09:35Z</time>
      </trkpt>
      <trkpt lat="45.84685" lon="2.90009">
        <ele>823</ele>
        <time>2017-03-24T16:09:15Z</time>
      </trkpt>
      <trkpt lat="45.84641" lon="2.90091">
        <ele>826</ele>
        <time>2017-03-24T16:08:55Z</time>
      </trkpt>
      <trkpt lat="45.84563" lon="2.9015">
        <ele>827</ele>
        <time>2017-03-24T16:08:35Z</time>
      </trkpt>
      <trkpt lat="45.84585" lon="2.90238">
        <ele>829</ele>
        <time>2017-03-24T16:08:15Z</time>
      </trkpt>
      <trkpt lat="45.8463" lon="2.90359">
        <ele>838</ele>
        <time>2017-03-24T16:07:55Z</time>
      </trkpt>
      <trkpt lat="45.84642" lon="2.90514">
        <ele>844</ele>
        <time>2017-03-24T16:07:35Z</time>
      </trkpt>
      <trkpt lat="45.84615" lon="2.90615">
        <ele>848</ele>
        <time>2017-03-24T16:07:15Z</time>
      </trkpt>
      <trkpt lat="45.84628" lon="2.90701">
        <ele>851</ele>
        <time>2017-03-24T16:06:55Z</time>
      </trkpt>
      <trkpt lat="45.84618" lon="2.90778">
        <ele>854</ele>
        <time>2017-03-24T16:06:35Z</time>
      </trkpt>
      <trkpt lat="45.84646" lon="2.90887">
        <ele>856</ele>
        <time>2017-03-24T16:06:15Z</time>
      </trkpt>
      <trkpt lat="45.84641" lon="2.91018">
        <ele>858</ele>
        <time>2017-03-24T16:05:55Z</time>
      </trkpt>
      <trkpt lat="45.84737" lon="2.91036">
        <ele>864</ele>
        <time>2017-03-24T16:05:35Z</time>
      </trkpt>
      <trkpt lat="45.84808" lon="2.91071">
        <ele>874</ele>
        <time>2017-03-24T16:05:15Z</time>
      </trkpt>
      <trkpt lat="45.8484" lon="2.91172">
        <ele>873</ele>
        <time>2017-03-24T16:04:55Z</time>
      </trkpt>
      <trkpt lat="45.84896" lon="2.91221">
        <ele>874</ele>
        <time>2017-03-24T16:04:35Z</time>
      </trkpt>
      <trkpt lat="45.85003" lon="2.91232">
        <ele>875</ele>
        <time>2017-03-24T16:04:15Z</time>
      </trkpt>
      <trkpt lat="45.85107" lon="2.91272">
        <ele>876</ele>
        <time>2017-03-24T16:03:55Z</time>
      </trkpt>
      <trkpt lat="45.85156" lon="2.91266">
        <ele>877</ele>
        <time>2017-03-24T16:03:35Z</time>
      </trkpt>
      <trkpt lat="45.85239" lon="2.91318">
        <ele>880</ele>
        <time>2017-03-24T16:03:15Z</time>
      </trkpt>
      <trkpt lat="45.85284" lon="2.91302">
        <ele>879</ele>
        <time>2017-03-24T16:02:55Z</time>
      </trkpt>
      <trkpt lat="45.85412" lon="2.91353">
        <ele>881</ele>
        <time>2017-03-24T16:02:35Z</time>
      </trkpt>
      <trkpt lat="45.85434" lon="2.91418">
        <ele>883</ele>
        <time>2017-03-24T16:02:15Z</time>
      </trkpt>
      <trkpt lat="45.85447" lon="2.91508">
        <ele>885</ele>
        <time>2017-03-24T16:01:55Z</time>
      </trkpt>
      <trkpt lat="45.85476" lon="2.91521">
        <ele>885</ele>
        <time>2017-03-24T16:01:35Z</time>
      </trkpt>
      <trkpt lat="45.85554" lon="2.91518">
        <ele>879</ele>
        <time>2017-03-24T16:01:15Z</time>
      </trkpt>
      <trkpt lat="45.85584" lon="2.91584">
        <ele>878</ele>
        <time>2017-03-24T16:00:55Z</time>
      </trkpt>
      <trkpt lat="45.85668" lon="2.91573">
        <ele>869</ele>
        <time>2017-03-24T16:00:35Z</time>
      </trkpt>
      <trkpt lat="45.8579" lon="2.91666">
        <ele>872</ele>
        <time>2017-03-24T16:00:15Z</time>
      </trkpt>
      <trkpt lat="45.85887" lon="2.91823">
        <ele>876</ele>
        <time>2017-03-24T15:59:55Z</time>
      </trkpt>
      <trkpt lat="45.85881" lon="2.91812">
        <ele>875</ele>
        <time>2017-03-24T15:59:35Z</time>
      </trkpt>
      <trkpt lat="45.85877" lon="2.91775">
        <ele>875</ele>
        <time>2017-03-24T15:59:15Z</time>
      </trkpt>
      <trkpt lat="45.85891" lon="2.9177">
        <ele>875</ele>
        <time>2017-03-24T15:58:55Z</time>
      </trkpt>
      <trkpt lat="45.85912" lon="2.91798">
        <ele>875</ele>
        <time>2017-03-24T15:58:35Z</time>
      </trkpt>
      <trkpt lat="45.85989" lon="2.91809">
        <ele>873</ele>
        <time>2017-03-24T15:58:15Z</time>
      </trkpt>
      <trkpt lat="45.8617" lon="2.91793">
        <ele>869</ele>
        <time>2017-03-24T15:57:55Z</time>
      </trkpt>
      <trkpt lat="45.86212" lon="2.91644">
        <ele>869</ele>
        <time>2017-03-24T15:57:35Z</time>
      </trkpt>
      <trkpt lat="45.8626" lon="2.91594">
        <ele>871</ele>
        <time>2017-03-24T15:57:15Z</time>
      </trkpt>
      <trkpt lat="45.86348" lon="2.914">
        <ele>859</ele>
        <time>2017-03-24T15:56:55Z</time>
      </trkpt>
      <trkpt lat="45.86366" lon="2.91383">
        <ele>859</ele>
        <time>2017-03-24T15:56:35Z</time>
      </trkpt>
      <trkpt lat="45.8638" lon="2.91382">
        <ele>858</ele>
        <time>2017-03-24T15:56:15Z</time>
      </trkpt>
      <trkpt lat="45.86448" lon="2.91391">
        <ele>858</ele>
        <time>2017-03-24T15:55:55Z</time>
      </trkpt>
      <trkpt lat="45.86482" lon="2.91358">
        <ele>859</ele>
        <time>2017-03-24T15:55:35Z</time>
      </trkpt>
      <trkpt lat="45.86556" lon="2.91342">
        <ele>864</ele>
        <time>2017-03-24T15:55:15Z</time>
      </trkpt>
      <trkpt lat="45.86615" lon="2.91313">
        <ele>871</ele>
        <time>2017-03-24T15:54:55Z</time>
      </trkpt>
      <trkpt lat="45.86644" lon="2.91286">
        <ele>871</ele>
        <time>2017-03-24T15:54:35Z</time>
      </trkpt>
      <trkpt lat="45.86679" lon="2.91229">
        <ele>868</ele>
        <time>2017-03-24T15:54:15Z</time>
      </trkpt>
      <trkpt lat="45.86734" lon="2.91086">
        <ele>859</ele>
        <time>2017-03-24T15:53:55Z</time>
      </trkpt>
      <trkpt lat="45.86737" lon="2.91026">
        <ele>857</ele>
        <time>2017-03-24T15:53:35Z</time>
      </trkpt>
      <trkpt lat="45.86756" lon="2.90976">
        <ele>852</ele>
        <time>2017-03-24T15:53:15Z</time>
      </trkpt>
      <trkpt lat="45.86742" lon="2.90918">
        <ele>851</ele>
        <time>2017-03-24T15:52:55Z</time>
      </trkpt>
      <trkpt lat="45.86705" lon="2.90839">
        <ele>847</ele>
        <time>2017-03-24T15:52:35Z</time>
      </trkpt>
      <trkpt lat="45.86674" lon="2.90793">
        <ele>839</ele>
        <time>2017-03-24T15:52:15Z</time>
      </trkpt>
      <trkpt lat="45.86658" lon="2.90782">
        <ele>843</ele>
        <time>2017-03-24T15:51:55Z</time>
      </trkpt>
      <trkpt lat="45.86647" lon="2.90761">
        <ele>842</ele>
        <time>2017-03-24T15:51:35Z</time>
      </trkpt>
      <trkpt lat="45.8664" lon="2.90712">
        <ele>838</ele>
        <time>2017-03-24T15:51:15Z</time>
      </trkpt>
      <trkpt lat="45.86661" lon="2.90659">
        <ele>833</ele>
        <time>2017-03-24T15:50:55Z</time>
      </trkpt>
      <trkpt lat="45.86666" lon="2.90548">
        <ele>826</ele>
        <time>2017-03-24T15:50:35Z</time>
      </trkpt>
      <trkpt lat="45.86594" lon="2.90426">
        <ele>819</ele>
        <time>2017-03-24T15:50:15Z</time>
      </trkpt>
      <trkpt lat="45.86617" lon="2.90344">
        <ele>817</ele>
        <time>2017-03-24T15:49:55Z</time>
      </trkpt>
      <trkpt lat="45.86611" lon="2.90271">
        <ele>815</ele>
        <time>2017-03-24T15:49:35Z</time>
      </trkpt>
      <trkpt lat="45.8661" lon="2.90219">
        <ele>813</ele>
        <time>2017-03-24T15:49:15Z</time>
      </trkpt>
      <trkpt lat="45.86603" lon="2.90184">
        <ele>811</ele>
        <time>2017-03-24T15:48:55Z</time>
      </trkpt>
      <trkpt lat="45.86576" lon="2.90096">
        <ele>805</ele>
        <time>2017-03-24T15:48:35Z</time>
      </trkpt>
      <trkpt lat="45.8656" lon="2.90078">
        <ele>803</ele>
        <time>2017-03-24T15:48:15Z</time>
      </trkpt>
      <trkpt lat="45.86553" lon="2.90038">
        <ele>803</ele>
        <time>2017-03-24T15:47:55Z</time>
      </trkpt>
      <trkpt lat="45.86559" lon="2.90013">
        <ele>804</ele>
        <time>2017-03-24T15:47:35Z</time>
      </trkpt>
      <trkpt lat="45.86551" lon="2.89989">
        <ele>804</ele>
        <time>2017-03-24T15:47:15Z</time>
      </trkpt>
      <trkpt lat="45.86551" lon="2.89943">
        <ele>804</ele>
        <time>2017-03-24T15:46:55Z</time>
      </trkpt>
      <trkpt lat="45.86523" lon="2.89917">
        <ele>802</ele>
        <time>2017-03-24T15:46:35Z</time>
      </trkpt>
      <trkpt lat="45.86507" lon="2.89888">
        <ele>801</ele>
        <time>2017-03-24T15:46:15Z</time>
      </trkpt>
      <trkpt lat="45.86479" lon="2.89839">
        <ele>796</ele>
        <time>2017-03-24T15:45:55Z</time>
      </trkpt>
      <trkpt lat="45.86449" lon="2.89777">
        <ele>791</ele>
        <time>2017-03-24T15:45:35Z</time>
      </trkpt>
      <trkpt lat="45.86429" lon="2.89755">
        <ele>789</ele>
        <time>2017-03-24T15:45:15Z</time>
      </trkpt>
      <trkpt lat="45.86403" lon="2.89749">
        <ele>785</ele>
        <time>2017-03-24T15:44:55Z</time>
      </trkpt>
      <trkpt lat="45.86407" lon="2.89716">
        <ele>784</ele>
        <time>2017-03-24T15:44:35Z</time>
      </trkpt>
      <trkpt lat="45.86435" lon="2.89696">
        <ele>785</ele>
        <time>2017-03-24T15:44:15Z</time>
      </trkpt>
      <trkpt lat="45.86488" lon="2.89676">
        <ele>788</ele>
        <time>2017-03-24T15:43:55Z</time>
      </trkpt>
      <trkpt lat="45.86508" lon="2.89633">
        <ele>792</ele>
        <time>2017-03-24T15:43:35Z</time>
      </trkpt>
      <trkpt lat="45.8652" lon="2.89592">
        <ele>791</ele>
        <time>2017-03-24T15:43:15Z</time>
      </trkpt>
      <trkpt lat="45.86513" lon="2.89555">
        <ele>792</ele>
        <time>2017-03-24T15:42:55Z</time>
      </trkpt>
      <trkpt lat="45.86513" lon="2.89522">
        <ele>792</ele>
        <time>2017-03-24T15:42:35Z</time>
      </trkpt>
      <trkpt lat="45.8649" lon="2.89469">
        <ele>789</ele>
        <time>2017-03-24T15:42:15Z</time>
      </trkpt>
      <trkpt lat="45.86458" lon="2.89331">
        <ele>787</ele>
        <time>2017-03-24T15:41:55Z</time>
      </trkpt>
      <trkpt lat="45.86383" lon="2.89269">
        <ele>780</ele>
        <time>2017-03-24T15:41:35Z</time>
      </trkpt>
      <trkpt lat="45.86361" lon="2.89105">
        <ele>780</ele>
        <time>2017-03-24T15:41:15Z</time>
      </trkpt>
      <trkpt lat="45.86359" lon="2.89056">
        <ele>782</ele>
        <time>2017-03-24T15:40:55Z</time>
      </trkpt>
      <trkpt lat="45.86339" lon="2.88899">
        <ele>784</ele>
        <time>2017-03-24T15:40:35Z</time>
      </trkpt>
      <trkpt lat="45.86326" lon="2.88846">
        <ele>778</ele>
        <time>2017-03-24T15:40:15Z</time>
      </trkpt>
      <trkpt lat="45.86321" lon="2.88779">
        <ele>776</ele>
        <time>2017-03-24T15:39:55Z</time>
      </trkpt>
      <trkpt lat="45.86308" lon="2.88745">
        <ele>777</ele>
        <time>2017-03-24T15:39:35Z</time>
      </trkpt>
      <trkpt lat="45.86365" lon="2.88681">
        <ele>782</ele>
        <time>2017-03-24T15:39:15Z</time>
      </trkpt>
      <trkpt lat="45.86393" lon="2.8866">
        <ele>782</ele>
        <time>2017-03-24T15:38:55Z</time>
      </trkpt>
      <trkpt lat="45.86416" lon="2.88623">
        <ele>782</ele>
        <time>2017-03-24T15:38:35Z</time>
      </trkpt>
      <trkpt lat="45.86522" lon="2.88551">
        <ele>796</ele>
        <time>2017-03-24T15:38:15Z</time>
      </trkpt>
      <trkpt lat="45.86548" lon="2.88532">
        <ele>797</ele>
        <time>2017-03-24T15:37:55Z</time>
      </trkpt>
      <trkpt lat="45.86568" lon="2.88501">
        <ele>799</ele>
        <time>2017-03-24T15:37:35Z</time>
      </trkpt>
      <trkpt lat="45.8658" lon="2.88431">
        <ele>801</ele>
        <time>2017-03-24T15:37:15Z</time>
      </trkpt>
      <trkpt lat="45.86578" lon="2.88381">
        <ele>802</ele>
        <time>2017-03-24T15:36:55Z</time>
      </trkpt>
      <trkpt lat="45.86571" lon="2.88337">
        <ele>803</ele>
        <time>2017-03-24T15:36:35Z</time>
      </trkpt>
      <trkpt lat="45.8654" lon="2.88271">
        <ele>804</ele>
        <time>2017-03-24T15:36:15Z</time>
      </trkpt>
      <trkpt lat="45.86534" lon="2.88237">
        <ele>806</ele>
        <time>2017-03-24T15:35:55Z</time>
      </trkpt>
      <trkpt lat="45.86538" lon="2.88194">
        <ele>807</ele>
        <time>2017-03-24T15:35:35Z</time>
      </trkpt>
      <trkpt lat="45.86573" lon="2.88226">
        <ele>808</ele>
        <time>2017-03-24T15:35:15Z</time>
      </trkpt>
      <trkpt lat="45.86629" lon="2.88205">
        <ele>817</ele>
        <time>2017-03-24T15:34:55Z</time>
      </trkpt>
      <trkpt lat="45.86647" lon="2.88171">
        <ele>819</ele>
        <time>2017-03-24T15:34:35Z</time>
      </trkpt>
      <trkpt lat="45.86654" lon="2.8812">
        <ele>820</ele>
        <time>2017-03-24T15:34:15Z</time>
      </trkpt>
      <trkpt lat="45.86655" lon="2.88034">
        <ele>820</ele>
        <time>2017-03-24T15:33:55Z</time>
      </trkpt>
      <trkpt lat="45.86674" lon="2.87986">
        <ele>824</ele>
        <time>2017-03-24T15:33:35Z</time>
      </trkpt>
      <trkpt lat="45.86694" lon="2.87873">
        <ele>822</ele>
        <time>2017-03-24T15:33:15Z</time>
      </trkpt>
      <trkpt lat="45.86697" lon="2.87794">
        <ele>821</ele>
        <time>2017-03-24T15:32:55Z</time>
      </trkpt>
      <trkpt lat="45.86689" lon="2.8759">
        <ele>822</ele>
        <time>2017-03-24T15:32:35Z</time>
      </trkpt>
      <trkpt lat="45.86659" lon="2.87435">
        <ele>815</ele>
        <time>2017-03-24T15:32:15Z</time>
      </trkpt>
      <trkpt lat="45.86642" lon="2.87231">
        <ele>806</ele>
        <time>2017-03-24T15:31:55Z</time>
      </trkpt>
      <trkpt lat="45.86645" lon="2.87182">
        <ele>805</ele>
        <time>2017-03-24T15:31:35Z</time>
      </trkpt>
      <trkpt lat="45.86663" lon="2.87165">
        <ele>803</ele>
        <time>2017-03-24T15:31:15Z</time>
      </trkpt>
      <trkpt lat="45.8678" lon="2.87155">
        <ele>798</ele>
        <time>2017-03-24T15:30:55Z</time>
      </trkpt>
      <trkpt lat="45.86831" lon="2.8718">
        <ele>800</ele>
        <time>2017-03-24T15:30:35Z</time>
      </trkpt>
      <trkpt lat="45.86852" lon="2.87158">
        <ele>798</ele>
        <time>2017-03-24T15:30:15Z</time>
      </trkpt>
      <trkpt lat="45.86877" lon="2.87103">
        <ele>798</ele>
        <time>2017-03-24T15:29:55Z</time>
      </trkpt>
      <trkpt lat="45.86879" lon="2.87033">
        <ele>795</ele>
        <time>2017-03-24T15:29:35Z</time>
      </trkpt>
      <trkpt lat="45.86886" lon="2.86985">
        <ele>794</ele>
        <time>2017-03-24T15:29:15Z</time>
      </trkpt>
      <trkpt lat="45.86887" lon="2.8687">
        <ele>793</ele>
        <time>2017-03-24T15:28:55Z</time>
      </trkpt>
      <trkpt lat="45.86893" lon="2.86803">
        <ele>793</ele>
        <time>2017-03-24T15:28:35Z</time>
      </trkpt>
      <trkpt lat="45.86906" lon="2.86747">
        <ele>792</ele>
        <time>2017-03-24T15:28:15Z</time>
      </trkpt>
      <trkpt lat="45.86898" lon="2.86688">
        <ele>791</ele>
        <time>2017-03-24T15:27:55Z</time>
      </trkpt>
      <trkpt lat="45.86882" lon="2.8663">
        <ele>790</ele>
        <time>2017-03-24T15:27:35Z</time>
      </trkpt>
      <trkpt lat="45.8688" lon="2.86574">
        <ele>789</ele>
        <time>2017-03-24T15:27:15Z</time>
      </trkpt>
      <trkpt lat="45.86899" lon="2.86477">
        <ele>786</ele>
        <time>2017-03-24T15:26:55Z</time>
      </trkpt>
      <trkpt lat="45.86913" lon="2.86459">
        <ele>785</ele>
        <time>2017-03-24T15:26:35Z</time>
      </trkpt>
      <trkpt lat="45.86928" lon="2.8643">
        <ele>787</ele>
        <time>2017-03-24T15:26:15Z</time>
      </trkpt>
      <trkpt lat="45.87005" lon="2.86327">
        <ele>788</ele>
        <time>2017-03-24T15:25:55Z</time>
      </trkpt>
      <trkpt lat="45.87025" lon="2.86268">
        <ele>791</ele>
        <time>2017-03-24T15:25:35Z</time>
      </trkpt>
      <trkpt lat="45.87027" lon="2.86207">
        <ele>792</ele>
        <time>2017-03-24T15:25:15Z</time>
      </trkpt>
      <trkpt lat="45.87019" lon="2.86165">
        <ele>791</ele>
        <time>2017-03-24T15:24:55Z</time>
      </trkpt>
      <trkpt lat="45.86996" lon="2.86135">
        <ele>786</ele>
        <time>2017-03-24T15:24:35Z</time>
      </trkpt>
      <trkpt lat="45.86979" lon="2.8609">
        <ele>787</ele>
        <time>2017-03-24T15:24:15Z</time>
      </trkpt>
      <trkpt lat="45.86973" lon="2.86027">
        <ele>785</ele>
        <time>2017-03-24T15:23:55Z</time>
      </trkpt>
      <trkpt lat="45.86951" lon="2.85994">
        <ele>781</ele>
        <time>2017-03-24T15:23:35Z</time>
      </trkpt>
      <trkpt lat="45.86866" lon="2.85967">
        <ele>776</ele>
        <time>2017-03-24T15:23:15Z</time>
      </trkpt>
      <trkpt lat="45.86847" lon="2.85946">
        <ele>775</ele>
        <time>2017-03-24T15:22:55Z</time>
      </trkpt>
      <trkpt lat="45.8682" lon="2.85851">
        <ele>772</ele>
        <time>2017-03-24T15:22:35Z</time>
      </trkpt>
      <trkpt lat="45.86803" lon="2.85758">
        <ele>769</ele>
        <time>2017-03-24T15:22:15Z</time>
      </trkpt>
      <trkpt lat="45.86809" lon="2.85751">
        <ele>768</ele>
        <time>2017-03-24T15:21:55Z</time>
      </trkpt>
      <trkpt lat="45.86806" lon="2.85723">
        <ele>765</ele>
        <time>2017-03-24T15:21:35Z</time>
      </trkpt>
      <trkpt lat="45.86835" lon="2.8571">
        <ele>758</ele>
        <time>2017-03-24T15:21:15Z</time>
      </trkpt>
      <trkpt lat="45.86894" lon="2.85684">
        <ele>752</ele>
        <time>2017-03-24T15:20:55Z</time>
      </trkpt>
      <trkpt lat="45.86922" lon="2.85682">
        <ele>750</ele>
        <time>2017-03-24T15:20:35Z</time>
      </trkpt>
      <trkpt lat="45.86951" lon="2.8558">
        <ele>737</ele>
        <time>2017-03-24T15:20:15Z</time>
      </trkpt>
      <trkpt lat="45.86933" lon="2.85489">
        <ele>728</ele>
        <time>2017-03-24T15:19:55Z</time>
      </trkpt>
      <trkpt lat="45.86943" lon="2.85407">
        <ele>723</ele>
        <time>2017-03-24T15:19:35Z</time>
      </trkpt>
      <trkpt lat="45.86933" lon="2.85365">
        <ele>722</ele>
        <time>2017-03-24T15:19:15Z</time>
      </trkpt>
      <trkpt lat="45.86934" lon="2.85306">
        <ele>720</ele>
        <time>2017-03-24T15:18:55Z</time>
      </trkpt>
      <trkpt lat="45.86918" lon="2.85221">
        <ele>715</ele>
        <time>2017-03-24T15:18:35Z</time>
      </trkpt>
      <trkpt lat="45.86897" lon="2.85163">
        <ele>698</ele>
        <time>2017-03-24T15:18:15Z</time>
      </trkpt>
      <trkpt lat="45.86877" lon="2.85132">
        <ele>692</ele>
        <time>2017-03-24T15:17:55Z</time>
      </trkpt>
      <trkpt lat="45.86843" lon="2.84988">
        <ele>679</ele>
        <time>2017-03-24T15:17:35Z</time>
      </trkpt>
      <trkpt lat="45.86841" lon="2.84957">
        <ele>679</ele>
        <time>2017-03-24T15:17:15Z</time>
      </trkpt>
      <trkpt lat="45.86853" lon="2.84948">
        <ele>679</ele>
        <time>2017-03-24T15:16:55Z</time>
      </trkpt>
      <trkpt lat="45.86874" lon="2.84957">
        <ele>681</ele>
        <time>2017-03-24T15:16:35Z</time>
      </trkpt>
      <trkpt lat="45.86924" lon="2.85021">
        <ele>698</ele>
        <time>2017-03-24T15:16:15Z</time>
      </trkpt>
      <trkpt lat="45.86941" lon="2.85009">
        <ele>698</ele>
        <time>2017-03-24T15:15:55Z</time>
      </trkpt>
      <trkpt lat="45.86934" lon="2.84957">
        <ele>690</ele>
        <time>2017-03-24T15:15:35Z</time>
      </trkpt>
      <trkpt lat="45.8696" lon="2.84831">
        <ele>670</ele>
        <time>2017-03-24T15:15:15Z</time>
      </trkpt>
      <trkpt lat="45.86941" lon="2.8475">
        <ele>654</ele>
        <time>2017-03-24T15:14:55Z</time>
      </trkpt>
      <trkpt lat="45.86938" lon="2.84677">
        <ele>648</ele>
        <time>2017-03-24T15:14:35Z</time>
      </trkpt>
      <trkpt lat="45.86922" lon="2.84644">
        <ele>640</ele>
        <time>2017-03-24T15:14:15Z</time>
      </trkpt>
      <trkpt lat="45.86882" lon="2.84608">
        <ele>629</ele>
        <time>2017-03-24T15:13:55Z</time>
      </trkpt>
      <trkpt lat="45.8688" lon="2.84578">
        <ele>620</ele>
        <time>2017-03-24T15:13:35Z</time>
      </trkpt>
      <trkpt lat="45.86854" lon="2.84572">
        <ele>618</ele>
        <time>2017-03-24T15:13:15Z</time>
      </trkpt>
      <trkpt lat="45.86848" lon="2.8455">
        <ele>617</ele>
        <time>2017-03-24T15:12:55Z</time>
      </trkpt>
      <trkpt lat="45.86853" lon="2.84541">
        <ele>617</ele>
        <time>2017-03-24T15:12:35Z</time>
      </trkpt>
      <trkpt lat="45.86868" lon="2.84537">
        <ele>617</ele>
        <time>2017-03-24T15:12:15Z</time>
      </trkpt>
      <trkpt lat="45.86893" lon="2.84557">
        <ele>620</ele>
        <time>2017-03-24T15:11:55Z</time>
      </trkpt>
      <trkpt lat="45.86917" lon="2.84562">
        <ele>630</ele>
        <time>2017-03-24T15:11:35Z</time>
      </trkpt>
      <trkpt lat="45.86926" lon="2.84549">
        <ele>631</ele>
        <time>2017-03-24T15:11:15Z</time>
      </trkpt>
      <trkpt lat="45.86928" lon="2.8453">
        <ele>631</ele>
        <time>2017-03-24T15:10:55Z</time>
      </trkpt>
      <trkpt lat="45.86872" lon="2.84444">
        <ele>615</ele>
        <time>2017-03-24T15:10:35Z</time>
      </trkpt>
      <trkpt lat="45.86856" lon="2.84394">
        <ele>612</ele>
        <time>2017-03-24T15:10:15Z</time>
      </trkpt>
      <trkpt lat="45.86857" lon="2.84341">
        <ele>611</ele>
        <time>2017-03-24T15:09:55Z</time>
      </trkpt>
      <trkpt lat="45.86866" lon="2.84296">
        <ele>611</ele>
        <time>2017-03-24T15:09:35Z</time>
      </trkpt>
      <trkpt lat="45.86925" lon="2.84296">
        <ele>628</ele>
        <time>2017-03-24T15:09:15Z</time>
      </trkpt>
      <trkpt lat="45.86989" lon="2.84248">
        <ele>631</ele>
        <time>2017-03-24T15:08:55Z</time>
      </trkpt>
      <trkpt lat="45.86982" lon="2.84223">
        <ele>628</ele>
        <time>2017-03-24T15:08:35Z</time>
      </trkpt>
      <trkpt lat="45.87072" lon="2.84236">
        <ele>644</ele>
        <time>2017-03-24T15:08:15Z</time>
      </trkpt>
      <trkpt lat="45.87083" lon="2.84261">
        <ele>655</ele>
        <time>2017-03-24T15:07:55Z</time>
      </trkpt>
      <trkpt lat="45.87062" lon="2.84303">
        <ele>652</ele>
        <time>2017-03-24T15:07:35Z</time>
      </trkpt>
      <trkpt lat="45.8703" lon="2.84405">
        <ele>662</ele>
        <time>2017-03-24T15:07:15Z</time>
      </trkpt>
      <trkpt lat="45.87024" lon="2.84443">
        <ele>666</ele>
        <time>2017-03-24T15:06:55Z</time>
      </trkpt>
      <trkpt lat="45.87028" lon="2.84464">
        <ele>666</ele>
        <time>2017-03-24T15:06:35Z</time>
      </trkpt>
      <trkpt lat="45.87059" lon="2.84513">
        <ele>670</ele>
        <time>2017-03-24T15:06:15Z</time>
      </trkpt>
      <trkpt lat="45.8711" lon="2.84554">
        <ele>689</ele>
        <time>2017-03-24T15:05:55Z</time>
      </trkpt>
      <trkpt lat="45.87169" lon="2.8459">
        <ele>701</ele>
        <time>2017-03-24T15:05:35Z</time>
      </trkpt>
      <trkpt lat="45.87225" lon="2.84586">
        <ele>709</ele>
        <time>2017-03-24T15:05:15Z</time>
      </trkpt>
      <trkpt lat="45.87282" lon="2.84595">
        <ele>723</ele>
        <time>2017-03-24T15:04:55Z</time>
      </trkpt>
      <trkpt lat="45.8731" lon="2.84645">
        <ele>725</ele>
        <time>2017-03-24T15:04:35Z</time>
      </trkpt>
      <trkpt lat="45.87343" lon="2.84671">
        <ele>733</ele>
        <time>2017-03-24T15:04:15Z</time>
      </trkpt>
      <trkpt lat="45.8739" lon="2.84676">
        <ele>737</ele>
        <time>2017-03-24T15:03:55Z</time>
      </trkpt>
      <trkpt lat="45.87436" lon="2.84699">
        <ele>745</ele>
        <time>2017-03-24T15:03:35Z</time>
      </trkpt>
      <trkpt lat="45.87489" lon="2.84686">
        <ele>748</ele>
        <time>2017-03-24T15:03:15Z</time>
      </trkpt>
      <trkpt lat="45.87515" lon="2.84659">
        <ele>752</ele>
        <time>2017-03-24T15:02:55Z</time>
      </trkpt>
      <trkpt lat="45.87544" lon="2.84618">
        <ele>753</ele>
        <time>2017-03-24T15:02:35Z</time>
      </trkpt>
      <trkpt lat="45.8757" lon="2.84611">
        <ele>754</ele>
        <time>2017-03-24T15:02:15Z</time>
      </trkpt>
      <trkpt lat="45.87584" lon="2.84624">
        <ele>760</ele>
        <time>2017-03-24T15:01:55Z</time>
      </trkpt>
      <trkpt lat="45.87632" lon="2.84618">
        <ele>762</ele>
        <time>2017-03-24T15:01:35Z</time>
      </trkpt>
      <trkpt lat="45.87677" lon="2.84626">
        <ele>764</ele>
        <time>2017-03-24T15:01:15Z</time>
      </trkpt>
      <trkpt lat="45.87718" lon="2.8456">
        <ele>763</ele>
        <time>2017-03-24T15:00:55Z</time>
      </trkpt>
      <trkpt lat="45.87833" lon="2.84473">
        <ele>760</ele>
        <time>2017-03-24T15:00:35Z</time>
      </trkpt>
      <trkpt lat="45.87881" lon="2.84457">
        <ele>751</ele>
        <time>2017-03-24T15:00:15Z</time>
      </trkpt>
      <trkpt lat="45.87925" lon="2.84458">
        <ele>741</ele>
        <time>2017-03-24T14:59:55Z</time>
      </trkpt>
      <trkpt lat="45.87984" lon="2.84443">
        <ele>739</ele>
        <time>2017-03-24T14:59:35Z</time>
      </trkpt>
      <trkpt lat="45.88011" lon="2.84465">
        <ele>731</ele>
        <time>2017-03-24T14:59:15Z</time>
      </trkpt>
      <trkpt lat="45.8806" lon="2.84533">
        <ele>727</ele>
        <time>2017-03-24T14:58:55Z</time>
      </trkpt>
      <trkpt lat="45.88081" lon="2.84548">
        <ele>726</ele>
        <time>2017-03-24T14:58:35Z</time>
      </trkpt>
      <trkpt lat="45.88105" lon="2.84544">
        <ele>712</ele>
        <time>2017-03-24T14:58:15Z</time>
      </trkpt>
      <trkpt lat="45.8812" lon="2.84512">
        <ele>711</ele>
        <time>2017-03-24T14:57:55Z</time>
      </trkpt>
      <trkpt lat="45.88123" lon="2.84475">
        <ele>708</ele>
        <time>2017-03-24T14:57:35Z</time>
      </trkpt>
      <trkpt lat="45.88112" lon="2.84416">
        <ele>704</ele>
        <time>2017-03-24T14:57:15Z</time>
      </trkpt>
      <trkpt lat="45.88116" lon="2.84383">
        <ele>700</ele>
        <time>2017-03-24T14:56:55Z</time>
      </trkpt>
      <trkpt lat="45.88144" lon="2.84328">
        <ele>687</ele>
        <time>2017-03-24T14:56:35Z</time>
      </trkpt>
      <trkpt lat="45.88144" lon="2.84304">
        <ele>687</ele>
        <time>2017-03-24T14:56:15Z</time>
      </trkpt>
      <trkpt lat="45.88123" lon="2.84311">
        <ele>689</ele>
        <time>2017-03-24T14:55:55Z</time>
      </trkpt>
      <trkpt lat="45.88095" lon="2.84283">
        <ele>688</ele>
        <time>2017-03-24T14:55:35Z</time>
      </trkpt>
      <trkpt lat="45.8815" lon="2.84184">
        <ele>693</ele>
        <time>2017-03-24T14:55:15Z</time>
      </trkpt>
      <trkpt lat="45.88144" lon="2.84173">
        <ele>694</ele>
        <time>2017-03-24T14:54:55Z</time>
      </trkpt>
      <trkpt lat="45.88114" lon="2.84186">
        <ele>688</ele>
        <time>2017-03-24T14:54:35Z</time>
      </trkpt>
      <trkpt lat="45.88074" lon="2.84135">
        <ele>688</ele>
        <time>2017-03-24T14:54:15Z</time>
      </trkpt>
      <trkpt lat="45.88062" lon="2.84068">
        <ele>694</ele>
        <time>2017-03-24T14:53:55Z</time>
      </trkpt>
      <trkpt lat="45.88072" lon="2.83997">
        <ele>705</ele>
        <time>2017-03-24T14:53:35Z</time>
      </trkpt>
      <trkpt lat="45.88075" lon="2.83894">
        <ele>707</ele>
        <time>2017-03-24T14:53:15Z</time>
      </trkpt>
      <trkpt lat="45.88066" lon="2.83834">
        <ele>711</ele>
        <time>2017-03-24T14:52:55Z</time>
      </trkpt>
      <trkpt lat="45.88017" lon="2.83718">
        <ele>716</ele>
        <time>2017-03-24T14:52:35Z</time>
      </trkpt>
      <trkpt lat="45.88038" lon="2.83693">
        <ele>719</ele>
        <time>2017-03-24T14:52:15Z</time>
      </trkpt>
      <trkpt lat="45.87775" lon="2.8356">
        <ele>724</ele>
        <time>2017-03-24T14:51:55Z</time>
      </trkpt>
      <trkpt lat="45.877" lon="2.83495">
        <ele>721</ele>
        <time>2017-03-24T14:51:35Z</time>
      </trkpt>
      <trkpt lat="45.87644" lon="2.83414">
        <ele>716</ele>
        <time>2017-03-24T14:51:15Z</time>
      </trkpt>
      <trkpt lat="45.8759" lon="2.83403">
        <ele>717</ele>
        <time>2017-03-24T14:50:55Z</time>
      </trkpt>
      <trkpt lat="45.87532" lon="2.83337">
        <ele>710</ele>
        <time>2017-03-24T14:50:35Z</time>
      </trkpt>
      <trkpt lat="45.87417" lon="2.83281">
        <ele>709</ele>
        <time>2017-03-24T14:50:15Z</time>
      </trkpt>
      <trkpt lat="45.87349" lon="2.83261">
        <ele>708</ele>
        <time>2017-03-24T14:49:55Z</time>
      </trkpt>
      <trkpt lat="45.87337" lon="2.83197">
        <ele>706</ele>
        <time>2017-03-24T14:49:35Z</time>
      </trkpt>
      <trkpt lat="45.87382" lon="2.83008">
        <ele>700</ele>
        <time>2017-03-24T14:49:15Z</time>
      </trkpt>
      <trkpt lat="45.87403" lon="2.82946">
        <ele>698</ele>
        <time>2017-03-24T14:48:55Z</time>
      </trkpt>
      <trkpt lat="45.87402" lon="2.82871">
        <ele>691</ele>
        <time>2017-03-24T14:48:35Z</time>
      </trkpt>
      <trkpt lat="45.87458" lon="2.8277">
        <ele>691</ele>
        <time>2017-03-24T14:48:15Z</time>
      </trkpt>
      <trkpt lat="45.87451" lon="2.82727">
        <ele>685</ele>
        <time>2017-03-24T14:47:55Z</time>
      </trkpt>
      <trkpt lat="45.87458" lon="2.82656">
        <ele>681</ele>
        <time>2017-03-24T14:47:35Z</time>
      </trkpt>
      <trkpt lat="45.87487" lon="2.82504">
        <ele>680</ele>
        <time>2017-03-24T14:47:15Z</time>
      </trkpt>
      <trkpt lat="45.87538" lon="2.8241">
        <ele>675</ele>
        <time>2017-03-24T14:46:55Z</time>
      </trkpt>
      <trkpt lat="45.87596" lon="2.82341">
        <ele>672</ele>
        <time>2017-03-24T14:46:35Z</time>
      </trkpt>
      <trkpt lat="45.87587" lon="2.82289">
        <ele>655</ele>
        <time>2017-03-24T14:46:15Z</time>
      </trkpt>
      <trkpt lat="45.87627" lon="2.82298">
        <ele>653</ele>
        <time>2017-03-24T14:45:55Z</time>
      </trkpt>
      <trkpt lat="45.87689" lon="2.82375">
        <ele>651</ele>
        <time>2017-03-24T14:45:35Z</time>
      </trkpt>
      <trkpt lat="45.87715" lon="2.82384">
        <ele>646</ele>
        <time>2017-03-24T14:45:15Z</time>
      </trkpt>
      <trkpt lat="45.87714" lon="2.82216">
        <ele>606</ele>
        <time>2017-03-24T14:44:55Z</time>
      </trkpt>
      <trkpt lat="45.87751" lon="2.82304">
        <ele>604</ele>
        <time>2017-03-24T14:44:35Z</time>
      </trkpt>
      <trkpt lat="45.87771" lon="2.82294">
        <ele>600</ele>
        <time>2017-03-24T14:44:15Z</time>
      </trkpt>
      <trkpt lat="45.87759" lon="2.82227">
        <ele>594</ele>
        <time>2017-03-24T14:43:55Z</time>
      </trkpt>
      <trkpt lat="45.87756" lon="2.82146">
        <ele>581</ele>
        <time>2017-03-24T14:43:35Z</time>
      </trkpt>
      <trkpt lat="45.87796" lon="2.82107">
        <ele>577</ele>
        <time>2017-03-24T14:43:15Z</time>
      </trkpt>
      <trkpt lat="45.8783" lon="2.82096">
        <ele>576</ele>
        <time>2017-03-24T14:42:55Z</time>
      </trkpt>
      <trkpt lat="45.87854" lon="2.82043">
        <ele>583</ele>
        <time>2017-03-24T14:42:35Z</time>
      </trkpt>
      <trkpt lat="45.87905" lon="2.81974">
        <ele>582</ele>
        <time>2017-03-24T14:42:15Z</time>
      </trkpt>
      <trkpt lat="45.87928" lon="2.81905">
        <ele>583</ele>
        <time>2017-03-24T14:41:55Z</time>
      </trkpt>
      <trkpt lat="45.88035" lon="2.81667">
        <ele>590</ele>
        <time>2017-03-24T14:41:35Z</time>
      </trkpt>
      <trkpt lat="45.88035" lon="2.81667">
        <ele>590</ele>
        <time>2017-03-24T14:41:15Z</time>
      </trkpt>
      <trkpt lat="45.88064" lon="2.8155">
        <ele>577</ele>
        <time>2017-03-24T14:40:55Z</time>
      </trkpt>
      <trkpt lat="45.88094" lon="2.81525">
        <ele>583</ele>
        <time>2017-03-24T14:40:35Z</time>
      </trkpt>
      <trkpt lat="45.88141" lon="2.81557">
        <ele>587</ele>
        <time>2017-03-24T14:40:15Z</time>
      </trkpt>
      <trkpt lat="45.88212" lon="2.81515">
        <ele>586</ele>
        <time>2017-03-24T14:39:55Z</time>
      </trkpt>
      <trkpt lat="45.88235" lon="2.8153">
        <ele>587</ele>
        <time>2017-03-24T14:39:35Z</time>
      </trkpt>
      <trkpt lat="45.88283" lon="2.8153">
        <ele>593</ele>
        <time>2017-03-24T14:39:15Z</time>
      </trkpt>
      <trkpt lat="45.88366" lon="2.81486">
        <ele>588</ele>
        <time>2017-03-24T14:38:55Z</time>
      </trkpt>
      <trkpt lat="45.88477" lon="2.81243">
        <ele>576</ele>
        <time>2017-03-24T14:38:35Z</time>
      </trkpt>
      <trkpt lat="45.88493" lon="2.81111">
        <ele>569</ele>
        <time>2017-03-24T14:38:15Z</time>
      </trkpt>
      <trkpt lat="45.88491" lon="2.81009">
        <ele>568</ele>
        <time>2017-03-24T14:37:55Z</time>
      </trkpt>
      <trkpt lat="45.88452" lon="2.80922">
        <ele>571</ele>
        <time>2017-03-24T14:37:35Z</time>
      </trkpt>
      <trkpt lat="45.88406" lon="2.80855">
        <ele>569</ele>
        <time>2017-03-24T14:37:15Z</time>
      </trkpt>
      <trkpt lat="45.88347" lon="2.80821">
        <ele>565</ele>
        <time>2017-03-24T14:36:55Z</time>
      </trkpt>
      <trkpt lat="45.88302" lon="2.80773">
        <ele>559</ele>
        <time>2017-03-24T14:36:35Z</time>
      </trkpt>
      <trkpt lat="45.88298" lon="2.80718">
        <ele>563</ele>
        <time>2017-03-24T14:36:15Z</time>
      </trkpt>
      <trkpt lat="45.88374" lon="2.80632">
        <ele>569</ele>
        <time>2017-03-24T14:35:55Z</time>
      </trkpt>
      <trkpt lat="45.88425" lon="2.80541">
        <ele>572</ele>
        <time>2017-03-24T14:35:35Z</time>
      </trkpt>
      <trkpt lat="45.88436" lon="2.80501">
        <ele>569</ele>
        <time>2017-03-24T14:35:15Z</time>
      </trkpt>
      <trkpt lat="45.88438" lon="2.8047">
        <ele>565</ele>
        <time>2017-03-24T14:34:55Z</time>
      </trkpt>
      <trkpt lat="45.88424" lon="2.80431">
        <ele>563</ele>
        <time>2017-03-24T14:34:35Z</time>
      </trkpt>
      <trkpt lat="45.88373" lon="2.80375">
        <ele>560</ele>
        <time>2017-03-24T14:34:15Z</time>
      </trkpt>
      <trkpt lat="45.8836" lon="2.80324">
        <ele>559</ele>
        <time>2017-03-24T14:33:55Z</time>
      </trkpt>
      <trkpt lat="45.88371" lon="2.80309">
        <ele>559</ele>
        <time>2017-03-24T14:33:35Z</time>
      </trkpt>
      <trkpt lat="45.88391" lon="2.80302">
        <ele>559</ele>
        <time>2017-03-24T14:33:15Z</time>
      </trkpt>
      <trkpt lat="45.88533" lon="2.80431">
        <ele>566</ele>
        <time>2017-03-24T14:32:55Z</time>
      </trkpt>
      <trkpt lat="45.88565" lon="2.80474">
        <ele>567</ele>
        <time>2017-03-24T14:32:35Z</time>
      </trkpt>
      <trkpt lat="45.8861" lon="2.80545">
        <ele>575</ele>
        <time>2017-03-24T14:32:15Z</time>
      </trkpt>
      <trkpt lat="45.88734" lon="2.80593">
        <ele>574</ele>
        <time>2017-03-24T14:31:55Z</time>
      </trkpt>
      <trkpt lat="45.88833" lon="2.80603">
        <ele>574</ele>
        <time>2017-03-24T14:31:35Z</time>
      </trkpt>
      <trkpt lat="45.88892" lon="2.80561">
        <ele>569</ele>
        <time>2017-03-24T14:31:15Z</time>
      </trkpt>
      <trkpt lat="45.88938" lon="2.80463">
        <ele>572</ele>
        <time>2017-03-24T14:30:55Z</time>
      </trkpt>
      <trkpt lat="45.88946" lon="2.80375">
        <ele>572</ele>
        <time>2017-03-24T14:30:35Z</time>
      </trkpt>
      <trkpt lat="45.88914" lon="2.80292">
        <ele>559</ele>
        <time>2017-03-24T14:30:15Z</time>
      </trkpt>
      <trkpt lat="45.88891" lon="2.80237">
        <ele>554</ele>
        <time>2017-03-24T14:29:55Z</time>
      </trkpt>
      <trkpt lat="45.88871" lon="2.80145">
        <ele>548</ele>
        <time>2017-03-24T14:29:35Z</time>
      </trkpt>
      <trkpt lat="45.88868" lon="2.80075">
        <ele>545</ele>
        <time>2017-03-24T14:29:15Z</time>
      </trkpt>
      <trkpt lat="45.88852" lon="2.80041">
        <ele>544</ele>
        <time>2017-03-24T14:28:55Z</time>
      </trkpt>
      <trkpt lat="45.88864" lon="2.80033">
        <ele>544</ele>
        <time>2017-03-24T14:28:35Z</time>
      </trkpt>
      <trkpt lat="45.88976" lon="2.80114">
        <ele>549</ele>
        <time>2017-03-24T14:28:15Z</time>
      </trkpt>
      <trkpt lat="45.8915" lon="2.80266">
        <ele>555</ele>
        <time>2017-03-24T14:27:55Z</time>
      </trkpt>
      <trkpt lat="45.89306" lon="2.80459">
        <ele>554</ele>
        <time>2017-03-24T14:27:35Z</time>
      </trkpt>
      <trkpt lat="45.89383" lon="2.8054">
        <ele>568</ele>
        <time>2017-03-24T14:27:15Z</time>
      </trkpt>
      <trkpt lat="45.89441" lon="2.80557">
        <ele>572</ele>
        <time>2017-03-24T14:26:55Z</time>
      </trkpt>
      <trkpt lat="45.89496" lon="2.80526">
        <ele>566</ele>
        <time>2017-03-24T14:26:35Z</time>
      </trkpt>
      <trkpt lat="45.89527" lon="2.80481">
        <ele>565</ele>
        <time>2017-03-24T14:26:15Z</time>
      </trkpt>
      <trkpt lat="45.89541" lon="2.80448">
        <ele>565</ele>
        <time>2017-03-24T14:25:55Z</time>
      </trkpt>
      <trkpt lat="45.89534" lon="2.80305">
        <ele>556</ele>
        <time>2017-03-24T14:25:35Z</time>
      </trkpt>
      <trkpt lat="45.89536" lon="2.80184">
        <ele>550</ele>
        <time>2017-03-24T14:25:15Z</time>
      </trkpt>
      <trkpt lat="45.89588" lon="2.80036">
        <ele>550</ele>
        <time>2017-03-24T14:24:55Z</time>
      </trkpt>
      <trkpt lat="45.89635" lon="2.79969">
        <ele>544</ele>
        <time>2017-03-24T14:24:35Z</time>
      </trkpt>
      <trkpt lat="45.89672" lon="2.79904">
        <ele>540</ele>
        <time>2017-03-24T14:24:15Z</time>
      </trkpt>
      <trkpt lat="45.89754" lon="2.79841">
        <ele>538</ele>
        <time>2017-03-24T14:23:55Z</time>
      </trkpt>
      <trkpt lat="45.8984" lon="2.79801">
        <ele>537</ele>
        <time>2017-03-24T14:23:35Z</time>
      </trkpt>
      <trkpt lat="45.89903" lon="2.79806">
        <ele>536</ele>
        <time>2017-03-24T14:23:15Z</time>
      </trkpt>
      <trkpt lat="45.89928" lon="2.79831">
        <ele>536</ele>
        <time>2017-03-24T14:22:55Z</time>
      </trkpt>
      <trkpt lat="45.89954" lon="2.79845">
        <ele>538</ele>
        <time>2017-03-24T14:22:35Z</time>
      </trkpt>
      <trkpt lat="45.89976" lon="2.79861">
        <ele>537</ele>
        <time>2017-03-24T14:22:15Z</time>
      </trkpt>
      <trkpt lat="45.89999" lon="2.79899">
        <ele>540</ele>
        <time>2017-03-24T14:21:55Z</time>
      </trkpt>
      <trkpt lat="45.90047" lon="2.79934">
        <ele>543</ele>
        <time>2017-03-24T14:21:35Z</time>
      </trkpt>
      <trkpt lat="45.90091" lon="2.79942">
        <ele>538</ele>
        <time>2017-03-24T14:21:15Z</time>
      </trkpt>
      <trkpt lat="45.90148" lon="2.7999">
        <ele>537</ele>
        <time>2017-03-24T14:20:55Z</time>
      </trkpt>
      <trkpt lat="45.9018" lon="2.80009">
        <ele>539</ele>
        <time>2017-03-24T14:20:35Z</time>
      </trkpt>
      <trkpt lat="45.90227" lon="2.80069">
        <ele>545</ele>
        <time>2017-03-24T14:20:15Z</time>
      </trkpt>
      <trkpt lat="45.90289" lon="2.80105">
        <ele>558</ele>
        <time>2017-03-24T14:19:55Z</time>
      </trkpt>
      <trkpt lat="45.9034" lon="2.80117">
        <ele>562</ele>
        <time>2017-03-24T14:19:35Z</time>
      </trkpt>
      <trkpt lat="45.90407" lon="2.80095">
        <ele>561</ele>
        <time>2017-03-24T14:19:15Z</time>
      </trkpt>
      <trkpt lat="45.90493" lon="2.79988">
        <ele>547</ele>
        <time>2017-03-24T14:18:55Z</time>
      </trkpt>
      <trkpt lat="45.90508" lon="2.79942">
        <ele>545</ele>
        <time>2017-03-24T14:18:35Z</time>
      </trkpt>
      <trkpt lat="45.90542" lon="2.79906">
        <ele>535</ele>
        <time>2017-03-24T14:18:15Z</time>
      </trkpt>
      <trkpt lat="45.90591" lon="2.79891">
        <ele>538</ele>
        <time>2017-03-24T14:17:55Z</time>
      </trkpt>
      <trkpt lat="45.90618" lon="2.79903">
        <ele>536</ele>
        <time>2017-03-24T14:17:35Z</time>
      </trkpt>
      <trkpt lat="45.90626" lon="2.79898">
        <ele>536</ele>
        <time>2017-03-24T14:17:15Z</time>
      </trkpt>
      <trkpt lat="45.9056" lon="2.79841">
        <ele>530</ele>
        <time>2017-03-24T14:16:55Z</time>
      </trkpt>
      <trkpt lat="45.90521" lon="2.79769">
        <ele>540</ele>
        <time>2017-03-24T14:16:35Z</time>
      </trkpt>
      <trkpt lat="45.90499" lon="2.79778">
        <ele>544</ele>
        <time>2017-03-24T14:16:15Z</time>
      </trkpt>
      <trkpt lat="45.90453" lon="2.79776">
        <ele>546</ele>
        <time>2017-03-24T14:15:55Z</time>
      </trkpt>
      <trkpt lat="45.90437" lon="2.79751">
        <ele>551</ele>
        <time>2017-03-24T14:15:35Z</time>
      </trkpt>
      <trkpt lat="45.90344" lon="2.79698">
        <ele>568</ele>
        <time>2017-03-24T14:15:15Z</time>
      </trkpt>
      <trkpt lat="45.90307" lon="2.79647">
        <ele>576</ele>
        <time>2017-03-24T14:14:55Z</time>
      </trkpt>
      <trkpt lat="45.90265" lon="2.7958">
        <ele>587</ele>
        <time>2017-03-24T14:14:35Z</time>
      </trkpt>
      <trkpt lat="45.9025" lon="2.79566">
        <ele>587</ele>
        <time>2017-03-24T14:14:15Z</time>
      </trkpt>
      <trkpt lat="45.90246" lon="2.79543">
        <ele>584</ele>
        <time>2017-03-24T14:13:55Z</time>
      </trkpt>
      <trkpt lat="45.90254" lon="2.79516">
        <ele>592</ele>
        <time>2017-03-24T14:13:35Z</time>
      </trkpt>
      <trkpt lat="45.90274" lon="2.79503">
        <ele>593</ele>
        <time>2017-03-24T14:13:15Z</time>
      </trkpt>
      <trkpt lat="45.90283" lon="2.79443">
        <ele>605</ele>
        <time>2017-03-24T14:12:55Z</time>
      </trkpt>
      <trkpt lat="45.90273" lon="2.79404">
        <ele>617</ele>
        <time>2017-03-24T14:12:35Z</time>
      </trkpt>
      <trkpt lat="45.90225" lon="2.79375">
        <ele>613</ele>
        <time>2017-03-24T14:12:15Z</time>
      </trkpt>
      <trkpt lat="45.90185" lon="2.79338">
        <ele>612</ele>
        <time>2017-03-24T14:11:55Z</time>
      </trkpt>
      <trkpt lat="45.90153" lon="2.79223">
        <ele>623</ele>
        <time>2017-03-24T14:11:35Z</time>
      </trkpt>
      <trkpt lat="45.90127" lon="2.79103">
        <ele>636</ele>
        <time>2017-03-24T14:11:15Z</time>
      </trkpt>
      <trkpt lat="45.90125" lon="2.79068">
        <ele>645</ele>
        <time>2017-03-24T14:10:55Z</time>
      </trkpt>
      <trkpt lat="45.90133" lon="2.79034">
        <ele>648</ele>
        <time>2017-03-24T14:10:35Z</time>
      </trkpt>
      <trkpt lat="45.90161" lon="2.79017">
        <ele>652</ele>
        <time>2017-03-24T14:10:15Z</time>
      </trkpt>
      <trkpt lat="45.90221" lon="2.7896">
        <ele>660</ele>
        <time>2017-03-24T14:09:55Z</time>
      </trkpt>
      <trkpt lat="45.90225" lon="2.78939">
        <ele>661</ele>
        <time>2017-03-24T14:09:35Z</time>
      </trkpt>
      <trkpt lat="45.90143" lon="2.78679">
        <ele>662</ele>
        <time>2017-03-24T14:09:15Z</time>
      </trkpt>
      <trkpt lat="45.90134" lon="2.78609">
        <ele>662</ele>
        <time>2017-03-24T14:08:55Z</time>
      </trkpt>
      <trkpt lat="45.90136" lon="2.78565">
        <ele>662</ele>
        <time>2017-03-24T14:08:35Z</time>
      </trkpt>
      <trkpt lat="45.90118" lon="2.78354">
        <ele>664</ele>
        <time>2017-03-24T14:08:15Z</time>
      </trkpt>
      <trkpt lat="45.90107" lon="2.78273">
        <ele>664</ele>
        <time>2017-03-24T14:07:55Z</time>
      </trkpt>
      <trkpt lat="45.90116" lon="2.7824">
        <ele>667</ele>
        <time>2017-03-24T14:07:35Z</time>
      </trkpt>
      <trkpt lat="45.90099" lon="2.78165">
        <ele>672</ele>
        <time>2017-03-24T14:07:15Z</time>
      </trkpt>
      <trkpt lat="45.90085" lon="2.78077">
        <ele>677</ele>
        <time>2017-03-24T14:06:55Z</time>
      </trkpt>
      <trkpt lat="45.90098" lon="2.78051">
        <ele>678</ele>
        <time>2017-03-24T14:06:35Z</time>
      </trkpt>
      <trkpt lat="45.90136" lon="2.78037">
        <ele>678</ele>
        <time>2017-03-24T14:06:15Z</time>
      </trkpt>
      <trkpt lat="45.90155" lon="2.78009">
        <ele>677</ele>
        <time>2017-03-24T14:05:55Z</time>
      </trkpt>
      <trkpt lat="45.90185" lon="2.77845">
        <ele>680</ele>
        <time>2017-03-24T14:05:35Z</time>
      </trkpt>
      <trkpt lat="45.90223" lon="2.77712">
        <ele>685</ele>
        <time>2017-03-24T14:05:15Z</time>
      </trkpt>
      <trkpt lat="45.90218" lon="2.77684">
        <ele>685</ele>
        <time>2017-03-24T14:04:55Z</time>
      </trkpt>
      <trkpt lat="45.90236" lon="2.77652">
        <ele>685</ele>
        <time>2017-03-24T14:04:35Z</time>
      </trkpt>
      <trkpt lat="45.90225" lon="2.77606">
        <ele>686</ele>
        <time>2017-03-24T14:04:15Z</time>
      </trkpt>
      <trkpt lat="45.9027" lon="2.77586">
        <ele>686</ele>
        <time>2017-03-24T14:03:55Z</time>
      </trkpt>
      <trkpt lat="45.90334" lon="2.77558">
        <ele>687</ele>
        <time>2017-03-24T14:03:35Z</time>
      </trkpt>
      <trkpt lat="45.90398" lon="2.77485">
        <ele>684</ele>
        <time>2017-03-24T14:03:15Z</time>
      </trkpt>
      <trkpt lat="45.9043" lon="2.77406">
        <ele>683</ele>
        <time>2017-03-24T14:02:55Z</time>
      </trkpt>
      <trkpt lat="45.90421" lon="2.77162">
        <ele>678</ele>
        <time>2017-03-24T14:02:35Z</time>
      </trkpt>
      <trkpt lat="45.90461" lon="2.76969">
        <ele>679</ele>
        <time>2017-03-24T14:02:15Z</time>
      </trkpt>
      <trkpt lat="45.90449" lon="2.76928">
        <ele>678</ele>
        <time>2017-03-24T14:01:55Z</time>
      </trkpt>
      <trkpt lat="45.9042" lon="2.7692">
        <ele>677</ele>
        <time>2017-03-24T14:01:35Z</time>
      </trkpt>
      <trkpt lat="45.90262" lon="2.76963">
        <ele>667</ele>
        <time>2017-03-24T14:01:15Z</time>
      </trkpt>
      <trkpt lat="45.90177" lon="2.76817">
        <ele>650</ele>
        <time>2017-03-24T14:00:55Z</time>
      </trkpt>
      <trkpt lat="45.90228" lon="2.76781">
        <ele>654</ele>
        <time>2017-03-24T14:00:35Z</time>
      </trkpt>
      <trkpt lat="45.90214" lon="2.7671">
        <ele>648</ele>
        <time>2017-03-24T14:00:15Z</time>
      </trkpt>
      <trkpt lat="45.90226" lon="2.76659">
        <ele>649</ele>
        <time>2017-03-24T13:59:55Z</time>
      </trkpt>
      <trkpt lat="45.90201" lon="2.76605">
        <ele>644</ele>
        <time>2017-03-24T13:59:35Z</time>
      </trkpt>
      <trkpt lat="45.90188" lon="2.76551">
        <ele>640</ele>
        <time>2017-03-24T13:59:15Z</time>
      </trkpt>
      <trkpt lat="45.90181" lon="2.76512">
        <ele>635</ele>
        <time>2017-03-24T13:58:55Z</time>
      </trkpt>
      <trkpt lat="45.90184" lon="2.76468">
        <ele>630</ele>
        <time>2017-03-24T13:58:35Z</time>
      </trkpt>
      <trkpt lat="45.9024" lon="2.76294">
        <ele>604</ele>
        <time>2017-03-24T13:58:15Z</time>
      </trkpt>
      <trkpt lat="45.90267" lon="2.76248">
        <ele>604</ele>
        <time>2017-03-24T13:57:55Z</time>
      </trkpt>
      <trkpt lat="45.90296" lon="2.76228">
        <ele>607</ele>
        <time>2017-03-24T13:57:35Z</time>
      </trkpt>
      <trkpt lat="45.9032" lon="2.7613">
        <ele>584</ele>
        <time>2017-03-24T13:57:15Z</time>
      </trkpt>
      <trkpt lat="45.90373" lon="2.76051">
        <ele>579</ele>
        <time>2017-03-24T13:56:55Z</time>
      </trkpt>
      <trkpt lat="45.90407" lon="2.76055">
        <ele>586</ele>
        <time>2017-03-24T13:56:35Z</time>
      </trkpt>
      <trkpt lat="45.90409" lon="2.76028">
        <ele>580</ele>
        <time>2017-03-24T13:56:15Z</time>
      </trkpt>
      <trkpt lat="45.90424" lon="2.75963">
        <ele>573</ele>
        <time>2017-03-24T13:55:55Z</time>
      </trkpt>
      <trkpt lat="45.90469" lon="2.75908">
        <ele>555</ele>
        <time>2017-03-24T13:55:35Z</time>
      </trkpt>
      <trkpt lat="45.90598" lon="2.75805">
        <ele>535</ele>
        <time>2017-03-24T13:55:15Z</time>
      </trkpt>
      <trkpt lat="45.90478" lon="2.75839">
        <ele>542</ele>
        <time>2017-03-24T13:54:55Z</time>
      </trkpt>
      <trkpt lat="45.90443" lon="2.75826">
        <ele>532</ele>
        <time>2017-03-24T13:54:35Z</time>
      </trkpt>
      <trkpt lat="45.9053" lon="2.75754">
        <ele>528</ele>
        <time>2017-03-24T13:54:15Z</time>
      </trkpt>
      <trkpt lat="45.90547" lon="2.75729">
        <ele>526</ele>
        <time>2017-03-24T13:53:55Z</time>
      </trkpt>
      <trkpt lat="45.90558" lon="2.75699">
        <ele>527</ele>
        <time>2017-03-24T13:53:35Z</time>
      </trkpt>
      <trkpt lat="45.90629" lon="2.75637">
        <ele>517</ele>
        <time>2017-03-24T13:53:15Z</time>
      </trkpt>
      <trkpt lat="45.90636" lon="2.7561">
        <ele>517</ele>
        <time>2017-03-24T13:52:55Z</time>
      </trkpt>
      <trkpt lat="45.9062" lon="2.75542">
        <ele>523</ele>
        <time>2017-03-24T13:52:35Z</time>
      </trkpt>
      <trkpt lat="45.90626" lon="2.75514">
        <ele>523</ele>
        <time>2017-03-24T13:52:15Z</time>
      </trkpt>
      <trkpt lat="45.90725" lon="2.7536">
        <ele>534</ele>
        <time>2017-03-24T13:51:55Z</time>
      </trkpt>
      <trkpt lat="45.90741" lon="2.75313">
        <ele>540</ele>
        <time>2017-03-24T13:51:35Z</time>
      </trkpt>
      <trkpt lat="45.90751" lon="2.75235">
        <ele>537</ele>
        <time>2017-03-24T13:51:15Z</time>
      </trkpt>
      <trkpt lat="45.90742" lon="2.75217">
        <ele>551</ele>
        <time>2017-03-24T13:50:55Z</time>
      </trkpt>
      <trkpt lat="45.90759" lon="2.75105">
        <ele>545</ele>
        <time>2017-03-24T13:50:35Z</time>
      </trkpt>
      <trkpt lat="45.90812" lon="2.75033">
        <ele>537</ele>
        <time>2017-03-24T13:50:15Z</time>
      </trkpt>
      <trkpt lat="45.90806" lon="2.75001">
        <ele>536</ele>
        <time>2017-03-24T13:49:55Z</time>
      </trkpt>
      <trkpt lat="45.90766" lon="2.74939">
        <ele>530</ele>
        <time>2017-03-24T13:49:35Z</time>
      </trkpt>
      <trkpt lat="45.90696" lon="2.74875">
        <ele>529</ele>
        <time>2017-03-24T13:49:15Z</time>
      </trkpt>
      <trkpt lat="45.90584" lon="2.74792">
        <ele>523</ele>
        <time>2017-03-24T13:48:55Z</time>
      </trkpt>
      <trkpt lat="45.90539" lon="2.74742">
        <ele>519</ele>
        <time>2017-03-24T13:48:35Z</time>
      </trkpt>
      <trkpt lat="45.90487" lon="2.74671">
        <ele>517</ele>
        <time>2017-03-24T13:48:15Z</time>
      </trkpt>
      <trkpt lat="45.90391" lon="2.747">
        <ele>530</ele>
        <time>2017-03-24T13:47:55Z</time>
      </trkpt>
      <trkpt lat="45.90365" lon="2.74717">
        <ele>534</ele>
        <time>2017-03-24T13:47:35Z</time>
      </trkpt>
      <trkpt lat="45.90335" lon="2.74718">
        <ele>536</ele>
        <time>2017-03-24T13:47:15Z</time>
      </trkpt>
      <trkpt lat="45.90273" lon="2.74688">
        <ele>542</ele>
        <time>2017-03-24T13:46:55Z</time>
      </trkpt>
      <trkpt lat="45.902" lon="2.74687">
        <ele>548</ele>
        <time>2017-03-24T13:46:35Z</time>
      </trkpt>
      <trkpt lat="45.90154" lon="2.74715">
        <ele>553</ele>
        <time>2017-03-24T13:46:15Z</time>
      </trkpt>
      <trkpt lat="45.90089" lon="2.74737">
        <ele>556</ele>
        <time>2017-03-24T13:45:55Z</time>
      </trkpt>
      <trkpt lat="45.90007" lon="2.74774">
        <ele>572</ele>
        <time>2017-03-24T13:45:35Z</time>
      </trkpt>
      <trkpt lat="45.89935" lon="2.74785">
        <ele>583</ele>
        <time>2017-03-24T13:45:15Z</time>
      </trkpt>
      <trkpt lat="45.89922" lon="2.74778">
        <ele>583</ele>
        <time>2017-03-24T13:44:55Z</time>
      </trkpt>
      <trkpt lat="45.89916" lon="2.74743">
        <ele>581</ele>
        <time>2017-03-24T13:44:35Z</time>
      </trkpt>
      <trkpt lat="45.89927" lon="2.74711">
        <ele>573</ele>
        <time>2017-03-24T13:44:15Z</time>
      </trkpt>
      <trkpt lat="45.89923" lon="2.74682">
        <ele>573</ele>
        <time>2017-03-24T13:43:55Z</time>
      </trkpt>
      <trkpt lat="45.89885" lon="2.74634">
        <ele>581</ele>
        <time>2017-03-24T13:43:35Z</time>
      </trkpt>
      <trkpt lat="45.89851" lon="2.74606">
        <ele>584</ele>
        <time>2017-03-24T13:43:15Z</time>
      </trkpt>
      <trkpt lat="45.89827" lon="2.74601">
        <ele>598</ele>
        <time>2017-03-24T13:42:55Z</time>
      </trkpt>
      <trkpt lat="45.89797" lon="2.74496">
        <ele>597</ele>
        <time>2017-03-24T13:42:35Z</time>
      </trkpt>
      <trkpt lat="45.89841" lon="2.74338">
        <ele>591</ele>
        <time>2017-03-24T13:42:15Z</time>
      </trkpt>
      <trkpt lat="45.89849" lon="2.74284">
        <ele>591</ele>
        <time>2017-03-24T13:41:55Z</time>
      </trkpt>
      <trkpt lat="45.89862" lon="2.74256">
        <ele>591</ele>
        <time>2017-03-24T13:41:35Z</time>
      </trkpt>
      <trkpt lat="45.89913" lon="2.74223">
        <ele>588</ele>
        <time>2017-03-24T13:41:15Z</time>
      </trkpt>
      <trkpt lat="45.89925" lon="2.74189">
        <ele>580</ele>
        <time>2017-03-24T13:40:55Z</time>
      </trkpt>
      <trkpt lat="45.89938" lon="2.74174">
        <ele>580</ele>
        <time>2017-03-24T13:40:35Z</time>
      </trkpt>
      <trkpt lat="45.89945" lon="2.74075">
        <ele>587</ele>
        <time>2017-03-24T13:40:15Z</time>
      </trkpt>
      <trkpt lat="45.89939" lon="2.74034">
        <ele>589</ele>
        <time>2017-03-24T13:39:55Z</time>
      </trkpt>
      <trkpt lat="45.89916" lon="2.73969">
        <ele>601</ele>
        <time>2017-03-24T13:39:35Z</time>
      </trkpt>
      <trkpt lat="45.89905" lon="2.73917">
        <ele>602</ele>
        <time>2017-03-24T13:39:15Z</time>
      </trkpt>
      <trkpt lat="45.89893" lon="2.73889">
        <ele>607</ele>
        <time>2017-03-24T13:38:55Z</time>
      </trkpt>
      <trkpt lat="45.89855" lon="2.73861">
        <ele>608</ele>
        <time>2017-03-24T13:38:35Z</time>
      </trkpt>
      <trkpt lat="45.89846" lon="2.73846">
        <ele>609</ele>
        <time>2017-03-24T13:38:15Z</time>
      </trkpt>
      <trkpt lat="45.89997" lon="2.73704">
        <ele>628</ele>
        <time>2017-03-24T13:37:55Z</time>
      </trkpt>
      <trkpt lat="45.90056" lon="2.73683">
        <ele>635</ele>
        <time>2017-03-24T13:37:35Z</time>
      </trkpt>
      <trkpt lat="45.90093" lon="2.73675">
        <ele>637</ele>
        <time>2017-03-24T13:37:15Z</time>
      </trkpt>
      <trkpt lat="45.90142" lon="2.73685">
        <ele>634</ele>
        <time>2017-03-24T13:36:55Z</time>
      </trkpt>
      <trkpt lat="45.90194" lon="2.73674">
        <ele>634</ele>
        <time>2017-03-24T13:36:35Z</time>
      </trkpt>
      <trkpt lat="45.90245" lon="2.73642">
        <ele>640</ele>
        <time>2017-03-24T13:36:15Z</time>
      </trkpt>
      <trkpt lat="45.90294" lon="2.73591">
        <ele>639</ele>
        <time>2017-03-24T13:35:55Z</time>
      </trkpt>
      <trkpt lat="45.90302" lon="2.73523">
        <ele>643</ele>
        <time>2017-03-24T13:35:35Z</time>
      </trkpt>
      <trkpt lat="45.90268" lon="2.73472">
        <ele>646</ele>
        <time>2017-03-24T13:35:15Z</time>
      </trkpt>
      <trkpt lat="45.9026" lon="2.73444">
        <ele>646</ele>
        <time>2017-03-24T13:34:55Z</time>
      </trkpt>
      <trkpt lat="45.90257" lon="2.73401">
        <ele>645</ele>
        <time>2017-03-24T13:34:35Z</time>
      </trkpt>
      <trkpt lat="45.90257" lon="2.73295">
        <ele>637</ele>
        <time>2017-03-24T13:34:15Z</time>
      </trkpt>
      <trkpt lat="45.9027" lon="2.73256">
        <ele>635</ele>
        <time>2017-03-24T13:33:55Z</time>
      </trkpt>
      <trkpt lat="45.90255" lon="2.73233">
        <ele>631</ele>
        <time>2017-03-24T13:33:35Z</time>
      </trkpt>
      <trkpt lat="45.90242" lon="2.7315">
        <ele>632</ele>
        <time>2017-03-24T13:33:15Z</time>
      </trkpt>
      <trkpt lat="45.90243" lon="2.73023">
        <ele>621</ele>
        <time>2017-03-24T13:32:55Z</time>
      </trkpt>
      <trkpt lat="45.90208" lon="2.72946">
        <ele>608</ele>
        <time>2017-03-24T13:32:35Z</time>
      </trkpt>
      <trkpt lat="45.90148" lon="2.72912">
        <ele>602</ele>
        <time>2017-03-24T13:32:15Z</time>
      </trkpt>
      <trkpt lat="45.90066" lon="2.7281">
        <ele>574</ele>
        <time>2017-03-24T13:31:55Z</time>
      </trkpt>
      <trkpt lat="45.90051" lon="2.72811">
        <ele>572</ele>
        <time>2017-03-24T13:31:35Z</time>
      </trkpt>
      <trkpt lat="45.90035" lon="2.72839">
        <ele>587</ele>
        <time>2017-03-24T13:31:15Z</time>
      </trkpt>
      <trkpt lat="45.89997" lon="2.72879">
        <ele>581</ele>
        <time>2017-03-24T13:30:55Z</time>
      </trkpt>
      <trkpt lat="45.89976" lon="2.72881">
        <ele>579</ele>
        <time>2017-03-24T13:30:35Z</time>
      </trkpt>
      <trkpt lat="45.89943" lon="2.72857">
        <ele>573</ele>
        <time>2017-03-24T13:30:15Z</time>
      </trkpt>
      <trkpt lat="45.89882" lon="2.72851">
        <ele>560</ele>
        <time>2017-03-24T13:29:55Z</time>
      </trkpt>
      <trkpt lat="45.89851" lon="2.72833">
        <ele>544</ele>
        <time>2017-03-24T13:29:35Z</time>
      </trkpt>
      <trkpt lat="45.89905" lon="2.72809">
        <ele>546</ele>
        <time>2017-03-24T13:29:15Z</time>
      </trkpt>
      <trkpt lat="45.89928" lon="2.72785">
        <ele>551</ele>
        <time>2017-03-24T13:28:55Z</time>
      </trkpt>
      <trkpt lat="45.89949" lon="2.72728">
        <ele>538</ele>
        <time>2017-03-24T13:28:35Z</time>
      </trkpt>
      <trkpt lat="45.89967" lon="2.72625">
        <ele>527</ele>
        <time>2017-03-24T13:28:15Z</time>
      </trkpt>
      <trkpt lat="45.89983" lon="2.72611">
        <ele>525</ele>
        <time>2017-03-24T13:27:55Z</time>
      </trkpt>
      <trkpt lat="45.90042" lon="2.72626">
        <ele>525</ele>
        <time>2017-03-24T13:27:35Z</time>
      </trkpt>
      <trkpt lat="45.9006" lon="2.72604">
        <ele>522</ele>
        <time>2017-03-24T13:27:15Z</time>
      </trkpt>
      <trkpt lat="45.90077" lon="2.72495">
        <ele>521</ele>
        <time>2017-03-24T13:26:55Z</time>
      </trkpt>
      <trkpt lat="45.90097" lon="2.72468">
        <ele>526</ele>
        <time>2017-03-24T13:26:35Z</time>
      </trkpt>
      <trkpt lat="45.90138" lon="2.72447">
        <ele>529</ele>
        <time>2017-03-24T13:26:15Z</time>
      </trkpt>
      <trkpt lat="45.90238" lon="2.72444">
        <ele>527</ele>
        <time>2017-03-24T13:25:55Z</time>
      </trkpt>
      <trkpt lat="45.90272" lon="2.72437">
        <ele>525</ele>
        <time>2017-03-24T13:25:35Z</time>
      </trkpt>
      <trkpt lat="45.90297" lon="2.72409">
        <ele>527</ele>
        <time>2017-03-24T13:25:15Z</time>
      </trkpt>
      <trkpt lat="45.90307" lon="2.72355">
        <ele>528</ele>
        <time>2017-03-24T13:24:55Z</time>
      </trkpt>
      <trkpt lat="45.90301" lon="2.72299">
        <ele>529</ele>
        <time>2017-03-24T13:24:35Z</time>
      </trkpt>
      <trkpt lat="45.90277" lon="2.72232">
        <ele>529</ele>
        <time>2017-03-24T13:24:15Z</time>
      </trkpt>
      <trkpt lat="45.90224" lon="2.72139">
        <ele>525</ele>
        <time>2017-03-24T13:23:55Z</time>
      </trkpt>
      <trkpt lat="45.90173" lon="2.72068">
        <ele>519</ele>
        <time>2017-03-24T13:23:35Z</time>
      </trkpt>
      <trkpt lat="45.90117" lon="2.72024">
        <ele>516</ele>
        <time>2017-03-24T13:23:15Z</time>
      </trkpt>
      <trkpt lat="45.90074" lon="2.72016">
        <ele>514</ele>
        <time>2017-03-24T13:22:55Z</time>
      </trkpt>
      <trkpt lat="45.90049" lon="2.72">
        <ele>509</ele>
        <time>2017-03-24T13:22:35Z</time>
      </trkpt>
      <trkpt lat="45.89982" lon="2.71893">
        <ele>516</ele>
        <time>2017-03-24T13:22:15Z</time>
      </trkpt>
      <trkpt lat="45.89962" lon="2.71874">
        <ele>517</ele>
        <time>2017-03-24T13:21:55Z</time>
      </trkpt>
      <trkpt lat="45.89895" lon="2.71852">
        <ele>521</ele>
        <time>2017-03-24T13:21:35Z</time>
      </trkpt>
      <trkpt lat="45.89872" lon="2.71831">
        <ele>519</ele>
        <time>2017-03-24T13:21:15Z</time>
      </trkpt>
      <trkpt lat="45.89851" lon="2.71749">
        <ele>517</ele>
        <time>2017-03-24T13:20:55Z</time>
      </trkpt>
      <trkpt lat="45.89862" lon="2.71706">
        <ele>520</ele>
        <time>2017-03-24T13:20:35Z</time>
      </trkpt>
      <trkpt lat="45.89886" lon="2.71512">
        <ele>519</ele>
        <time>2017-03-24T13:20:15Z</time>
      </trkpt>
      <trkpt lat="45.89902" lon="2.71473">
        <ele>519</ele>
        <time>2017-03-24T13:19:55Z</time>
      </trkpt>
      <trkpt lat="45.8996" lon="2.71409">
        <ele>517</ele>
        <time>2017-03-24T13:19:35Z</time>
      </trkpt>
      <trkpt lat="45.89956" lon="2.71341">
        <ele>517</ele>
        <time>2017-03-24T13:19:15Z</time>
      </trkpt>
      <trkpt lat="45.89932" lon="2.71293">
        <ele>520</ele>
        <time>2017-03-24T13:18:55Z</time>
      </trkpt>
      <trkpt lat="45.89903" lon="2.71245">
        <ele>537</ele>
        <time>2017-03-24T13:18:35Z</time>
      </trkpt>
      <trkpt lat="45.89806" lon="2.71124">
        <ele>564</ele>
        <time>2017-03-24T13:18:15Z</time>
      </trkpt>
      <trkpt lat="45.89791" lon="2.71064">
        <ele>575</ele>
        <time>2017-03-24T13:17:55Z</time>
      </trkpt>
      <trkpt lat="45.89754" lon="2.71055">
        <ele>576</ele>
        <time>2017-03-24T13:17:35Z</time>
      </trkpt>
      <trkpt lat="45.89699" lon="2.71056">
        <ele>585</ele>
        <time>2017-03-24T13:17:15Z</time>
      </trkpt>
      <trkpt lat="45.8963" lon="2.71037">
        <ele>595</ele>
        <time>2017-03-24T13:16:55Z</time>
      </trkpt>
      <trkpt lat="45.896" lon="2.71021">
        <ele>597</ele>
        <time>2017-03-24T13:16:35Z</time>
      </trkpt>
      <trkpt lat="45.89574" lon="2.7099">
        <ele>601</ele>
        <time>2017-03-24T13:16:15Z</time>
      </trkpt>
      <trkpt lat="45.89522" lon="2.70897">
        <ele>603</ele>
        <time>2017-03-24T13:15:55Z</time>
      </trkpt>
      <trkpt lat="45.89507" lon="2.70883">
        <ele>603</ele>
        <time>2017-03-24T13:15:35Z</time>
      </trkpt>
      <trkpt lat="45.89515" lon="2.70752">
        <ele>605</ele>
        <time>2017-03-24T13:15:15Z</time>
      </trkpt>
      <trkpt lat="45.89453" lon="2.70687">
        <ele>607</ele>
        <time>2017-03-24T13:14:55Z</time>
      </trkpt>
      <trkpt lat="45.89437" lon="2.70609">
        <ele>612</ele>
        <time>2017-03-24T13:14:35Z</time>
      </trkpt>
      <trkpt lat="45.89351" lon="2.70268">
        <ele>606</ele>
        <time>2017-03-24T13:14:15Z</time>
      </trkpt>
      <trkpt lat="45.89299" lon="2.70127">
        <ele>610</ele>
        <time>2017-03-24T13:13:55Z</time>
      </trkpt>
      <trkpt lat="45.89287" lon="2.70038">
        <ele>609</ele>
        <time>2017-03-24T13:13:35Z</time>
      </trkpt>
      <trkpt lat="45.89233" lon="2.69843">
        <ele>608</ele>
        <time>2017-03-24T13:13:15Z</time>
      </trkpt>
      <trkpt lat="45.89208" lon="2.69788">
        <ele>612</ele>
        <time>2017-03-24T13:12:55Z</time>
      </trkpt>
      <trkpt lat="45.89188" lon="2.69727">
        <ele>616</ele>
        <time>2017-03-24T13:12:35Z</time>
      </trkpt>
      <trkpt lat="45.89085" lon="2.69569">
        <ele>622</ele>
        <time>2017-03-24T13:12:15Z</time>
      </trkpt>
      <trkpt lat="45.89065" lon="2.69543">
        <ele>623</ele>
        <time>2017-03-24T13:11:55Z</time>
      </trkpt>
      <trkpt lat="45.89006" lon="2.69501">
        <ele>625</ele>
        <time>2017-03-24T13:11:35Z</time>
      </trkpt>
      <trkpt lat="45.88991" lon="2.69499">
        <ele>627</ele>
        <time>2017-03-24T13:11:15Z</time>
      </trkpt>
      <trkpt lat="45.88951" lon="2.69508">
        <ele>624</ele>
        <time>2017-03-24T13:10:55Z</time>
      </trkpt>
      <trkpt lat="45.88923" lon="2.69495">
        <ele>627</ele>
        <time>2017-03-24T13:10:35Z</time>
      </trkpt>
      <trkpt lat="45.8886" lon="2.69423">
        <ele>631</ele>
        <time>2017-03-24T13:10:15Z</time>
      </trkpt>
      <trkpt lat="45.88836" lon="2.69389">
        <ele>634</ele>
        <time>2017-03-24T13:09:55Z</time>
      </trkpt>
      <trkpt lat="45.88779" lon="2.69218">
        <ele>634</ele>
        <time>2017-03-24T13:09:35Z</time>
      </trkpt>
      <trkpt lat="45.88723" lon="2.69071">
        <ele>633</ele>
        <time>2017-03-24T13:09:15Z</time>
      </trkpt>
      <trkpt lat="45.88703" lon="2.69037">
        <ele>633</ele>
        <time>2017-03-24T13:08:55Z</time>
      </trkpt>
      <trkpt lat="45.88645" lon="2.68997">
        <ele>635</ele>
        <time>2017-03-24T13:08:35Z</time>
      </trkpt>
      <trkpt lat="45.88552" lon="2.689">
        <ele>631</ele>
        <time>2017-03-24T13:08:15Z</time>
      </trkpt>
      <trkpt lat="45.88507" lon="2.68801">
        <ele>628</ele>
        <time>2017-03-24T13:07:55Z</time>
      </trkpt>
      <trkpt lat="45.88505" lon="2.68771">
        <ele>627</ele>
        <time>2017-03-24T13:07:35Z</time>
      </trkpt>
      <trkpt lat="45.88606" lon="2.68432">
        <ele>614</ele>
        <time>2017-03-24T13:07:15Z</time>
      </trkpt>
      <trkpt lat="45.88625" lon="2.6844">
        <ele>615</ele>
        <time>2017-03-24T13:06:55Z</time>
      </trkpt>
      <trkpt lat="45.88652" lon="2.68302">
        <ele>607</ele>
        <time>2017-03-24T13:06:35Z</time>
      </trkpt>
      <trkpt lat="45.88692" lon="2.68197">
        <ele>608</ele>
        <time>2017-03-24T13:06:15Z</time>
      </trkpt>
      <trkpt lat="45.88707" lon="2.68091">
        <ele>608</ele>
        <time>2017-03-24T13:05:55Z</time>
      </trkpt>
      <trkpt lat="45.88734" lon="2.68002">
        <ele>607</ele>
        <time>2017-03-24T13:05:35Z</time>
      </trkpt>
      <trkpt lat="45.88776" lon="2.67716">
        <ele>607</ele>
        <time>2017-03-24T13:05:15Z</time>
      </trkpt>
      <trkpt lat="45.88772" lon="2.67686">
        <ele>607</ele>
        <time>2017-03-24T13:04:55Z</time>
      </trkpt>
      <trkpt lat="45.88782" lon="2.67667">
        <ele>607</ele>
        <time>2017-03-24T13:04:35Z</time>
      </trkpt>
      <trkpt lat="45.88793" lon="2.67588">
        <ele>606</ele>
        <time>2017-03-24T13:04:15Z</time>
      </trkpt>
      <trkpt lat="45.88841" lon="2.67476">
        <ele>607</ele>
        <time>2017-03-24T13:03:55Z</time>
      </trkpt>
      <trkpt lat="45.88939" lon="2.67369">
        <ele>605</ele>
        <time>2017-03-24T13:03:35Z</time>
      </trkpt>
      <trkpt lat="45.8898" lon="2.67303">
        <ele>601</ele>
        <time>2017-03-24T13:03:15Z</time>
      </trkpt>
      <trkpt lat="45.89017" lon="2.67256">
        <ele>597</ele>
        <time>2017-03-24T13:02:55Z</time>
      </trkpt>
      <trkpt lat="45.89034" lon="2.67221">
        <ele>597</ele>
        <time>2017-03-24T13:02:35Z</time>
      </trkpt>
      <trkpt lat="45.89084" lon="2.6716">
        <ele>598</ele>
        <time>2017-03-24T13:02:15Z</time>
      </trkpt>
      <trkpt lat="45.89183" lon="2.6689">
        <ele>603</ele>
        <time>2017-03-24T13:01:55Z</time>
      </trkpt>
      <trkpt lat="45.89214" lon="2.66832">
        <ele>603</ele>
        <time>2017-03-24T13:01:35Z</time>
      </trkpt>
      <trkpt lat="45.89261" lon="2.66708">
        <ele>603</ele>
        <time>2017-03-24T13:01:15Z</time>
      </trkpt>
      <trkpt lat="45.89308" lon="2.66602">
        <ele>606</ele>
        <time>2017-03-24T13:00:55Z</time>
      </trkpt>
      <trkpt lat="45.89324" lon="2.66485">
        <ele>610</ele>
        <time>2017-03-24T13:00:35Z</time>
      </trkpt>
      <trkpt lat="45.89322" lon="2.66438">
        <ele>611</ele>
        <time>2017-03-24T13:00:15Z</time>
      </trkpt>
      <trkpt lat="45.89301" lon="2.66329">
        <ele>619</ele>
        <time>2017-03-24T12:59:55Z</time>
      </trkpt>
      <trkpt lat="45.89315" lon="2.66268">
        <ele>620</ele>
        <time>2017-03-24T12:59:35Z</time>
      </trkpt>
      <trkpt lat="45.89319" lon="2.66211">
        <ele>623</ele>
        <time>2017-03-24T12:59:15Z</time>
      </trkpt>
      <trkpt lat="45.89327" lon="2.66165">
        <ele>625</ele>
        <time>2017-03-24T12:58:55Z</time>
      </trkpt>
      <trkpt lat="45.89349" lon="2.66117">
        <ele>628</ele>
        <time>2017-03-24T12:58:35Z</time>
      </trkpt>
      <trkpt lat="45.89427" lon="2.66048">
        <ele>633</ele>
        <time>2017-03-24T12:58:15Z</time>
      </trkpt>
      <trkpt lat="45.89461" lon="2.66063">
        <ele>633</ele>
        <time>2017-03-24T12:57:55Z</time>
      </trkpt>
      <trkpt lat="45.89487" lon="2.66093">
        <ele>632</ele>
        <time>2017-03-24T12:57:35Z</time>
      </trkpt>
      <trkpt lat="45.89523" lon="2.66152">
        <ele>633</ele>
        <time>2017-03-24T12:57:15Z</time>
      </trkpt>
      <trkpt lat="45.89537" lon="2.66147">
        <ele>634</ele>
        <time>2017-03-24T12:56:55Z</time>
      </trkpt>
      <trkpt lat="45.89612" lon="2.65773">
        <ele>629</ele>
        <time>2017-03-24T12:56:35Z</time>
      </trkpt>
      <trkpt lat="45.897" lon="2.65438">
        <ele>639</ele>
        <time>2017-03-24T12:56:15Z</time>
      </trkpt>
      <trkpt lat="45.89627" lon="2.6547">
        <ele>638</ele>
        <time>2017-03-24T12:55:55Z</time>
      </trkpt>
      <trkpt lat="45.89511" lon="2.6555">
        <ele>634</ele>
        <time>2017-03-24T12:55:35Z</time>
      </trkpt>
      <trkpt lat="45.89499" lon="2.65544">
        <ele>630</ele>
        <time>2017-03-24T12:55:15Z</time>
      </trkpt>
      <trkpt lat="45.89461" lon="2.65352">
        <ele>628</ele>
        <time>2017-03-24T12:54:55Z</time>
      </trkpt>
      <trkpt lat="45.8944" lon="2.65215">
        <ele>626</ele>
        <time>2017-03-24T12:54:35Z</time>
      </trkpt>
      <trkpt lat="45.89411" lon="2.64922">
        <ele>628</ele>
        <time>2017-03-24T12:54:15Z</time>
      </trkpt>
      <trkpt lat="45.89403" lon="2.64758">
        <ele>632</ele>
        <time>2017-03-24T12:53:55Z</time>
      </trkpt>
      <trkpt lat="45.89417" lon="2.64737">
        <ele>633</ele>
        <time>2017-03-24T12:53:35Z</time>
      </trkpt>
      <trkpt lat="45.89414" lon="2.64726">
        <ele>633</ele>
        <time>2017-03-24T12:53:15Z</time>
      </trkpt>
      <trkpt lat="45.89447" lon="2.64638">
        <ele>637</ele>
        <time>2017-03-24T12:52:55Z</time>
      </trkpt>
      <trkpt lat="45.89312" lon="2.64487">
        <ele>637</ele>
        <time>2017-03-24T12:52:35Z</time>
      </trkpt>
      <trkpt lat="45.89249" lon="2.64392">
        <ele>635</ele>
        <time>2017-03-24T12:52:15Z</time>
      </trkpt>
      <trkpt lat="45.89206" lon="2.64277">
        <ele>638</ele>
        <time>2017-03-24T12:51:55Z</time>
      </trkpt>
      <trkpt lat="45.89194" lon="2.64249">
        <ele>639</ele>
        <time>2017-03-24T12:51:35Z</time>
      </trkpt>
      <trkpt lat="45.89097" lon="2.64115">
        <ele>638</ele>
        <time>2017-03-24T12:51:15Z</time>
      </trkpt>
      <trkpt lat="45.89004" lon="2.63883">
        <ele>637</ele>
        <time>2017-03-24T12:50:55Z</time>
      </trkpt>
      <trkpt lat="45.8876" lon="2.6395">
        <ele>628</ele>
        <time>2017-03-24T12:50:35Z</time>
      </trkpt>
      <trkpt lat="45.88727" lon="2.63936">
        <ele>624</ele>
        <time>2017-03-24T12:50:15Z</time>
      </trkpt>
      <trkpt lat="45.88705" lon="2.6391">
        <ele>620</ele>
        <time>2017-03-24T12:49:55Z</time>
      </trkpt>
      <trkpt lat="45.8869" lon="2.63877">
        <ele>619</ele>
        <time>2017-03-24T12:49:35Z</time>
      </trkpt>
      <trkpt lat="45.88593" lon="2.63894">
        <ele>610</ele>
        <time>2017-03-24T12:49:15Z</time>
      </trkpt>
      <trkpt lat="45.88583" lon="2.63903">
        <ele>605</ele>
        <time>2017-03-24T12:48:55Z</time>
      </trkpt>
      <trkpt lat="45.88576" lon="2.63949">
        <ele>609</ele>
        <time>2017-03-24T12:48:35Z</time>
      </trkpt>
      <trkpt lat="45.88566" lon="2.63966">
        <ele>609</ele>
        <time>2017-03-24T12:48:15Z</time>
      </trkpt>
      <trkpt lat="45.88447" lon="2.63956">
        <ele>598</ele>
        <time>2017-03-24T12:47:55Z</time>
      </trkpt>
      <trkpt lat="45.88405" lon="2.63932">
        <ele>593</ele>
        <time>2017-03-24T12:47:35Z</time>
      </trkpt>
      <trkpt lat="45.88379" lon="2.63925">
        <ele>593</ele>
        <time>2017-03-24T12:47:15Z</time>
      </trkpt>
      <trkpt lat="45.88345" lon="2.63912">
        <ele>588</ele>
        <time>2017-03-24T12:46:55Z</time>
      </trkpt>
      <trkpt lat="45.88321" lon="2.63913">
        <ele>587</ele>
        <time>2017-03-24T12:46:35Z</time>
      </trkpt>
      <trkpt lat="45.88304" lon="2.639">
        <ele>586</ele>
        <time>2017-03-24T12:46:15Z</time>
      </trkpt>
      <trkpt lat="45.88206" lon="2.63944">
        <ele>588</ele>
        <time>2017-03-24T12:45:55Z</time>
      </trkpt>
      <trkpt lat="45.88157" lon="2.63998">
        <ele>588</ele>
        <time>2017-03-24T12:45:35Z</time>
      </trkpt>
      <trkpt lat="45.88112" lon="2.64027">
        <ele>592</ele>
        <time>2017-03-24T12:45:15Z</time>
      </trkpt>
      <trkpt lat="45.88108" lon="2.64085">
        <ele>604</ele>
        <time>2017-03-24T12:44:55Z</time>
      </trkpt>
      <trkpt lat="45.88073" lon="2.64047">
        <ele>591</ele>
        <time>2017-03-24T12:44:35Z</time>
      </trkpt>
      <trkpt lat="45.88045" lon="2.64043">
        <ele>591</ele>
        <time>2017-03-24T12:44:15Z</time>
      </trkpt>
      <trkpt lat="45.87962" lon="2.64046">
        <ele>592</ele>
        <time>2017-03-24T12:43:55Z</time>
      </trkpt>
      <trkpt lat="45.87932" lon="2.64027">
        <ele>590</ele>
        <time>2017-03-24T12:43:35Z</time>
      </trkpt>
      <trkpt lat="45.87892" lon="2.64025">
        <ele>593</ele>
        <time>2017-03-24T12:43:15Z</time>
      </trkpt>
      <trkpt lat="45.87849" lon="2.64011">
        <ele>593</ele>
        <time>2017-03-24T12:42:55Z</time>
      </trkpt>
      <trkpt lat="45.87805" lon="2.63986">
        <ele>590</ele>
        <time>2017-03-24T12:42:35Z</time>
      </trkpt>
      <trkpt lat="45.87753" lon="2.63929">
        <ele>586</ele>
        <time>2017-03-24T12:42:15Z</time>
      </trkpt>
      <trkpt lat="45.87688" lon="2.63887">
        <ele>590</ele>
        <time>2017-03-24T12:41:55Z</time>
      </trkpt>
      <trkpt lat="45.87641" lon="2.63833">
        <ele>593</ele>
        <time>2017-03-24T12:41:35Z</time>
      </trkpt>
      <trkpt lat="45.87611" lon="2.63816">
        <ele>588</ele>
        <time>2017-03-24T12:41:15Z</time>
      </trkpt>
      <trkpt lat="45.87534" lon="2.63799">
        <ele>594</ele>
        <time>2017-03-24T12:40:55Z</time>
      </trkpt>
      <trkpt lat="45.87468" lon="2.63745">
        <ele>586</ele>
        <time>2017-03-24T12:40:35Z</time>
      </trkpt>
      <trkpt lat="45.87417" lon="2.63727">
        <ele>587</ele>
        <time>2017-03-24T12:40:15Z</time>
      </trkpt>
      <trkpt lat="45.87394" lon="2.63734">
        <ele>590</ele>
        <time>2017-03-24T12:39:55Z</time>
      </trkpt>
      <trkpt lat="45.87377" lon="2.63758">
        <ele>589</ele>
        <time>2017-03-24T12:39:35Z</time>
      </trkpt>
      <trkpt lat="45.87369" lon="2.63799">
        <ele>589</ele>
        <time>2017-03-24T12:39:15Z</time>
      </trkpt>
      <trkpt lat="45.87384" lon="2.63986">
        <ele>593</ele>
        <time>2017-03-24T12:38:55Z</time>
      </trkpt>
      <trkpt lat="45.87384" lon="2.64085">
        <ele>600</ele>
        <time>2017-03-24T12:38:35Z</time>
      </trkpt>
      <trkpt lat="45.8737" lon="2.6412">
        <ele>600</ele>
        <time>2017-03-24T12:38:15Z</time>
      </trkpt>
      <trkpt lat="45.87347" lon="2.64138">
        <ele>599</ele>
        <time>2017-03-24T12:37:55Z</time>
      </trkpt>
      <trkpt lat="45.87309" lon="2.64137">
        <ele>590</ele>
        <time>2017-03-24T12:37:35Z</time>
      </trkpt>
      <trkpt lat="45.87286" lon="2.64122">
        <ele>589</ele>
        <time>2017-03-24T12:37:15Z</time>
      </trkpt>
      <trkpt lat="45.87249" lon="2.6408">
        <ele>581</ele>
        <time>2017-03-24T12:36:55Z</time>
      </trkpt>
      <trkpt lat="45.87225" lon="2.64064">
        <ele>579</ele>
        <time>2017-03-24T12:36:35Z</time>
      </trkpt>
      <trkpt lat="45.87196" lon="2.64075">
        <ele>578</ele>
        <time>2017-03-24T12:36:15Z</time>
      </trkpt>
      <trkpt lat="45.87174" lon="2.64095">
        <ele>579</ele>
        <time>2017-03-24T12:36:15Z</time>
      </trkpt>
      <trkpt lat="45.87138" lon="2.64162">
        <ele>580</ele>
        <time>2017-03-24T17:53:46Z</time>
      </trkpt>
      <trkpt lat="45.87112" lon="2.64256">
        <ele>585</ele>
        <time>2017-03-24T17:53:26Z</time>
      </trkpt>
      <trkpt lat="45.8706" lon="2.64294">
        <ele>578</ele>
        <time>2017-03-24T17:53:06Z</time>
      </trkpt>
      <trkpt lat="45.8702" lon="2.64292">
        <ele>576</ele>
        <time>2017-03-24T17:52:46Z</time>
      </trkpt>
      <trkpt lat="45.86997" lon="2.64272">
        <ele>580</ele>
        <time>2017-03-24T17:52:26Z</time>
      </trkpt>
      <trkpt lat="45.86984" lon="2.64226">
        <ele>588</ele>
        <time>2017-03-24T17:52:06Z</time>
      </trkpt>
      <trkpt lat="45.86993" lon="2.64188">
        <ele>590</ele>
        <time>2017-03-24T17:51:46Z</time>
      </trkpt>
      <trkpt lat="45.87017" lon="2.6415">
        <ele>587</ele>
        <time>2017-03-24T17:51:26Z</time>
      </trkpt>
      <trkpt lat="45.87025" lon="2.64126">
        <ele>588</ele>
        <time>2017-03-24T17:51:06Z</time>
      </trkpt>
      <trkpt lat="45.87011" lon="2.64109">
        <ele>591</ele>
        <time>2017-03-24T17:50:46Z</time>
      </trkpt>
      <trkpt lat="45.86983" lon="2.64115">
        <ele>603</ele>
        <time>2017-03-24T17:50:26Z</time>
      </trkpt>
      <trkpt lat="45.86922" lon="2.64186">
        <ele>601</ele>
        <time>2017-03-24T17:50:06Z</time>
      </trkpt>
      <trkpt lat="45.86905" lon="2.64187">
        <ele>617</ele>
        <time>2017-03-24T17:49:46Z</time>
      </trkpt>
      <trkpt lat="45.86887" lon="2.64161">
        <ele>625</ele>
        <time>2017-03-24T17:49:26Z</time>
      </trkpt>
      <trkpt lat="45.8687" lon="2.64176">
        <ele>625</ele>
        <time>2017-03-24T17:49:06Z</time>
      </trkpt>
      <trkpt lat="45.86845" lon="2.64218">
        <ele>627</ele>
        <time>2017-03-24T17:48:46Z</time>
      </trkpt>
      <trkpt lat="45.86802" lon="2.64214">
        <ele>639</ele>
        <time>2017-03-24T17:48:26Z</time>
      </trkpt>
      <trkpt lat="45.86772" lon="2.64171">
        <ele>642</ele>
        <time>2017-03-24T17:48:06Z</time>
      </trkpt>
      <trkpt lat="45.86781" lon="2.6416">
        <ele>647</ele>
        <time>2017-03-24T17:47:46Z</time>
      </trkpt>
      <trkpt lat="45.86778" lon="2.64119">
        <ele>648</ele>
        <time>2017-03-24T17:47:26Z</time>
      </trkpt>
      <trkpt lat="45.8677" lon="2.64077">
        <ele>653</ele>
        <time>2017-03-24T17:47:06Z</time>
      </trkpt>
      <trkpt lat="45.86758" lon="2.64054">
        <ele>653</ele>
        <time>2017-03-24T17:46:46Z</time>
      </trkpt>
      <trkpt lat="45.86733" lon="2.63839">
        <ele>672</ele>
        <time>2017-03-24T17:46:26Z</time>
      </trkpt>
      <trkpt lat="45.86573" lon="2.63502">
        <ele>691</ele>
        <time>2017-03-24T17:46:06Z</time>
      </trkpt>
      <trkpt lat="45.86498" lon="2.63229">
        <ele>704</ele>
        <time>2017-03-24T17:45:46Z</time>
      </trkpt>
      <trkpt lat="45.86417" lon="2.62767">
        <ele>707</ele>
        <time>2017-03-24T17:45:26Z</time>
      </trkpt>
      <trkpt lat="45.86341" lon="2.62887">
        <ele>705</ele>
        <time>2017-03-24T17:45:06Z</time>
      </trkpt>
      <trkpt lat="45.8625" lon="2.62966">
        <ele>702</ele>
        <time>2017-03-24T17:44:46Z</time>
      </trkpt>
      <trkpt lat="45.86186" lon="2.63006">
        <ele>701</ele>
        <time>2017-03-24T17:44:26Z</time>
      </trkpt>
      <trkpt lat="45.86085" lon="2.63116">
        <ele>702</ele>
        <time>2017-03-24T17:44:06Z</time>
      </trkpt>
      <trkpt lat="45.86015" lon="2.63131">
        <ele>699</ele>
        <time>2017-03-24T17:43:46Z</time>
      </trkpt>
      <trkpt lat="45.85949" lon="2.62919">
        <ele>690</ele>
        <time>2017-03-24T17:43:26Z</time>
      </trkpt>
      <trkpt lat="45.8592" lon="2.6289">
        <ele>689</ele>
        <time>2017-03-24T17:43:06Z</time>
      </trkpt>
      <trkpt lat="45.85851" lon="2.62861">
        <ele>686</ele>
        <time>2017-03-24T17:42:46Z</time>
      </trkpt>
      <trkpt lat="45.85771" lon="2.62871">
        <ele>688</ele>
        <time>2017-03-24T17:42:26Z</time>
      </trkpt>
      <trkpt lat="45.85612" lon="2.62596">
        <ele>699</ele>
        <time>2017-03-24T17:42:06Z</time>
      </trkpt>
      <trkpt lat="45.8558" lon="2.62566">
        <ele>706</ele>
        <time>2017-03-24T17:41:46Z</time>
      </trkpt>
      <trkpt lat="45.8551" lon="2.624">
        <ele>712</ele>
        <time>2017-03-24T17:41:26Z</time>
      </trkpt>
      <trkpt lat="45.85479" lon="2.62265">
        <ele>712</ele>
        <time>2017-03-24T17:41:06Z</time>
      </trkpt>
      <trkpt lat="45.85442" lon="2.6215">
        <ele>722</ele>
        <time>2017-03-24T17:40:46Z</time>
      </trkpt>
      <trkpt lat="45.85379" lon="2.62033">
        <ele>726</ele>
        <time>2017-03-24T17:40:26Z</time>
      </trkpt>
      <trkpt lat="45.8525" lon="2.61825">
        <ele>715</ele>
        <time>2017-03-24T17:40:06Z</time>
      </trkpt>
      <trkpt lat="45.85218" lon="2.6179">
        <ele>714</ele>
        <time>2017-03-24T17:39:46Z</time>
      </trkpt>
      <trkpt lat="45.85214" lon="2.61817">
        <ele>715</ele>
        <time>2017-03-24T17:39:26Z</time>
      </trkpt>
      <trkpt lat="45.85186" lon="2.61834">
        <ele>715</ele>
        <time>2017-03-24T17:39:06Z</time>
      </trkpt>
      <trkpt lat="45.8513" lon="2.61838">
        <ele>713</ele>
        <time>2017-03-24T17:38:46Z</time>
      </trkpt>
      <trkpt lat="45.85099" lon="2.61834">
        <ele>713</ele>
        <time>2017-03-24T17:38:26Z</time>
      </trkpt>
      <trkpt lat="45.85066" lon="2.61842">
        <ele>711</ele>
        <time>2017-03-24T17:38:06Z</time>
      </trkpt>
      <trkpt lat="45.85012" lon="2.61884">
        <ele>709</ele>
        <time>2017-03-24T17:37:46Z</time>
      </trkpt>
      <trkpt lat="45.84965" lon="2.61912">
        <ele>706</ele>
        <time>2017-03-24T17:37:26Z</time>
      </trkpt>
      <trkpt lat="45.84922" lon="2.61872">
        <ele>704</ele>
        <time>2017-03-24T17:37:06Z</time>
      </trkpt>
      <trkpt lat="45.84924" lon="2.6183">
        <ele>699</ele>
        <time>2017-03-24T17:36:46Z</time>
      </trkpt>
      <trkpt lat="45.84852" lon="2.61739">
        <ele>689</ele>
        <time>2017-03-24T17:36:26Z</time>
      </trkpt>
      <trkpt lat="45.8484" lon="2.61713">
        <ele>689</ele>
        <time>2017-03-24T17:36:06Z</time>
      </trkpt>
      <trkpt lat="45.84813" lon="2.61677">
        <ele>685</ele>
        <time>2017-03-24T17:35:46Z</time>
      </trkpt>
      <trkpt lat="45.84816" lon="2.61649">
        <ele>684</ele>
        <time>2017-03-24T17:35:26Z</time>
      </trkpt>
      <trkpt lat="45.84825" lon="2.61632">
        <ele>684</ele>
        <time>2017-03-24T17:35:06Z</time>
      </trkpt>
      <trkpt lat="45.84835" lon="2.616">
        <ele>685</ele>
        <time>2017-03-24T17:34:46Z</time>
      </trkpt>
      <trkpt lat="45.84857" lon="2.61559">
        <ele>685</ele>
        <time>2017-03-24T17:34:26Z</time>
      </trkpt>
      <trkpt lat="45.84858" lon="2.61525">
        <ele>684</ele>
        <time>2017-03-24T17:34:06Z</time>
      </trkpt>
      <trkpt lat="45.84851" lon="2.61497">
        <ele>681</ele>
        <time>2017-03-24T17:33:46Z</time>
      </trkpt>
      <trkpt lat="45.8483" lon="2.61409">
        <ele>672</ele>
        <time>2017-03-24T17:33:26Z</time>
      </trkpt>
      <trkpt lat="45.84837" lon="2.6139">
        <ele>673</ele>
        <time>2017-03-24T17:33:06Z</time>
      </trkpt>
      <trkpt lat="45.84913" lon="2.61287">
        <ele>669</ele>
        <time>2017-03-24T17:32:46Z</time>
      </trkpt>
      <trkpt lat="45.84917" lon="2.61268">
        <ele>671</ele>
        <time>2017-03-24T17:32:26Z</time>
      </trkpt>
      <trkpt lat="45.8491" lon="2.61243">
        <ele>669</ele>
        <time>2017-03-24T17:32:06Z</time>
      </trkpt>
      <trkpt lat="45.84883" lon="2.61218">
        <ele>671</ele>
        <time>2017-03-24T17:31:46Z</time>
      </trkpt>
      <trkpt lat="45.84862" lon="2.61212">
        <ele>672</ele>
        <time>2017-03-24T17:31:26Z</time>
      </trkpt>
      <trkpt lat="45.84822" lon="2.61223">
        <ele>670</ele>
        <time>2017-03-24T17:31:06Z</time>
      </trkpt>
      <trkpt lat="45.84777" lon="2.61219">
        <ele>671</ele>
        <time>2017-03-24T17:30:46Z</time>
      </trkpt>
      <trkpt lat="45.84735" lon="2.61201">
        <ele>670</ele>
        <time>2017-03-24T17:30:26Z</time>
      </trkpt>
      <trkpt lat="45.84686" lon="2.61159">
        <ele>673</ele>
        <time>2017-03-24T17:30:06Z</time>
      </trkpt>
      <trkpt lat="45.84636" lon="2.61092">
        <ele>671</ele>
        <time>2017-03-24T17:29:46Z</time>
      </trkpt>
      <trkpt lat="45.84602" lon="2.61068">
        <ele>676</ele>
        <time>2017-03-24T17:29:26Z</time>
      </trkpt>
      <trkpt lat="45.84562" lon="2.61028">
        <ele>674</ele>
        <time>2017-03-24T17:29:06Z</time>
      </trkpt>
      <trkpt lat="45.84336" lon="2.60848">
        <ele>681</ele>
        <time>2017-03-24T17:28:46Z</time>
      </trkpt>
      <trkpt lat="45.84287" lon="2.60781">
        <ele>681</ele>
        <time>2017-03-24T17:28:26Z</time>
      </trkpt>
      <trkpt lat="45.8426" lon="2.60725">
        <ele>683</ele>
        <time>2017-03-24T17:28:06Z</time>
      </trkpt>
      <trkpt lat="45.84199" lon="2.60631">
        <ele>679</ele>
        <time>2017-03-24T17:27:46Z</time>
      </trkpt>
      <trkpt lat="45.84184" lon="2.60593">
        <ele>678</ele>
        <time>2017-03-24T17:27:26Z</time>
      </trkpt>
      <trkpt lat="45.84188" lon="2.6055">
        <ele>678</ele>
        <time>2017-03-24T17:27:06Z</time>
      </trkpt>
      <trkpt lat="45.84187" lon="2.60489">
        <ele>675</ele>
        <time>2017-03-24T17:26:46Z</time>
      </trkpt>
      <trkpt lat="45.84192" lon="2.60441">
        <ele>674</ele>
        <time>2017-03-24T17:26:26Z</time>
      </trkpt>
      <trkpt lat="45.84185" lon="2.60409">
        <ele>669</ele>
        <time>2017-03-24T17:26:06Z</time>
      </trkpt>
      <trkpt lat="45.84191" lon="2.60367">
        <ele>667</ele>
        <time>2017-03-24T17:25:46Z</time>
      </trkpt>
      <trkpt lat="45.84143" lon="2.60245">
        <ele>649</ele>
        <time>2017-03-24T17:25:26Z</time>
      </trkpt>
      <trkpt lat="45.84148" lon="2.60224">
        <ele>649</ele>
        <time>2017-03-24T17:25:06Z</time>
      </trkpt>
      <trkpt lat="45.84171" lon="2.60195">
        <ele>654</ele>
        <time>2017-03-24T17:24:46Z</time>
      </trkpt>
      <trkpt lat="45.84227" lon="2.60103">
        <ele>650</ele>
        <time>2017-03-24T17:24:26Z</time>
      </trkpt>
      <trkpt lat="45.8425" lon="2.60031">
        <ele>650</ele>
        <time>2017-03-24T17:24:06Z</time>
      </trkpt>
      <trkpt lat="45.84317" lon="2.59924">
        <ele>649</ele>
        <time>2017-03-24T17:23:46Z</time>
      </trkpt>
      <trkpt lat="45.84343" lon="2.59909">
        <ele>650</ele>
        <time>2017-03-24T17:23:26Z</time>
      </trkpt>
      <trkpt lat="45.84397" lon="2.59895">
        <ele>651</ele>
        <time>2017-03-24T17:23:06Z</time>
      </trkpt>
      <trkpt lat="45.84442" lon="2.59848">
        <ele>654</ele>
        <time>2017-03-24T17:22:46Z</time>
      </trkpt>
      <trkpt lat="45.84502" lon="2.59822">
        <ele>660</ele>
        <time>2017-03-24T17:22:26Z</time>
      </trkpt>
      <trkpt lat="45.84517" lon="2.59777">
        <ele>661</ele>
        <time>2017-03-24T17:22:06Z</time>
      </trkpt>
      <trkpt lat="45.84519" lon="2.59708">
        <ele>662</ele>
        <time>2017-03-24T17:21:46Z</time>
      </trkpt>
      <trkpt lat="45.84528" lon="2.59635">
        <ele>663</ele>
        <time>2017-03-24T17:21:26Z</time>
      </trkpt>
      <trkpt lat="45.84542" lon="2.59601">
        <ele>663</ele>
        <time>2017-03-24T17:21:06Z</time>
      </trkpt>
      <trkpt lat="45.84537" lon="2.59577">
        <ele>664</ele>
        <time>2017-03-24T17:20:46Z</time>
      </trkpt>
      <trkpt lat="45.84541" lon="2.59537">
        <ele>664</ele>
        <time>2017-03-24T17:20:26Z</time>
      </trkpt>
      <trkpt lat="45.84572" lon="2.59521">
        <ele>663</ele>
        <time>2017-03-24T17:20:06Z</time>
      </trkpt>
      <trkpt lat="45.84584" lon="2.59496">
        <ele>661</ele>
        <time>2017-03-24T17:19:46Z</time>
      </trkpt>
      <trkpt lat="45.84585" lon="2.59437">
        <ele>659</ele>
        <time>2017-03-24T17:19:26Z</time>
      </trkpt>
      <trkpt lat="45.84594" lon="2.59391">
        <ele>657</ele>
        <time>2017-03-24T17:19:06Z</time>
      </trkpt>
      <trkpt lat="45.84607" lon="2.59366">
        <ele>656</ele>
        <time>2017-03-24T17:18:46Z</time>
      </trkpt>
      <trkpt lat="45.84642" lon="2.59337">
        <ele>656</ele>
        <time>2017-03-24T17:18:26Z</time>
      </trkpt>
      <trkpt lat="45.84647" lon="2.59322">
        <ele>656</ele>
        <time>2017-03-24T17:18:06Z</time>
      </trkpt>
      <trkpt lat="45.84644" lon="2.59272">
        <ele>656</ele>
        <time>2017-03-24T17:17:46Z</time>
      </trkpt>
      <trkpt lat="45.84655" lon="2.59221">
        <ele>657</ele>
        <time>2017-03-24T17:17:26Z</time>
      </trkpt>
      <trkpt lat="45.84681" lon="2.59185">
        <ele>659</ele>
        <time>2017-03-24T17:17:06Z</time>
      </trkpt>
      <trkpt lat="45.84706" lon="2.59118">
        <ele>664</ele>
        <time>2017-03-24T17:16:46Z</time>
      </trkpt>
      <trkpt lat="45.84726" lon="2.59021">
        <ele>672</ele>
        <time>2017-03-24T17:16:26Z</time>
      </trkpt>
      <trkpt lat="45.84715" lon="2.58949">
        <ele>675</ele>
        <time>2017-03-24T17:16:06Z</time>
      </trkpt>
      <trkpt lat="45.84731" lon="2.58846">
        <ele>675</ele>
        <time>2017-03-24T17:15:46Z</time>
      </trkpt>
      <trkpt lat="45.84727" lon="2.58809">
        <ele>673</ele>
        <time>2017-03-24T17:15:26Z</time>
      </trkpt>
      <trkpt lat="45.84712" lon="2.58797">
        <ele>672</ele>
        <time>2017-03-24T17:15:06Z</time>
      </trkpt>
      <trkpt lat="45.84711" lon="2.58775">
        <ele>672</ele>
        <time>2017-03-24T17:14:46Z</time>
      </trkpt>
      <trkpt lat="45.84743" lon="2.58668">
        <ele>670</ele>
        <time>2017-03-24T17:14:26Z</time>
      </trkpt>
      <trkpt lat="45.84743" lon="2.58607">
        <ele>661</ele>
        <time>2017-03-24T17:14:06Z</time>
      </trkpt>
      <trkpt lat="45.84749" lon="2.58584">
        <ele>661</ele>
        <time>2017-03-24T17:13:46Z</time>
      </trkpt>
      <trkpt lat="45.84778" lon="2.58552">
        <ele>663</ele>
        <time>2017-03-24T17:13:26Z</time>
      </trkpt>
      <trkpt lat="45.84813" lon="2.58439">
        <ele>660</ele>
        <time>2017-03-24T17:13:06Z</time>
      </trkpt>
      <trkpt lat="45.84803" lon="2.58378">
        <ele>661</ele>
        <time>2017-03-24T17:12:46Z</time>
      </trkpt>
      <trkpt lat="45.84802" lon="2.58338">
        <ele>662</ele>
        <time>2017-03-24T17:12:26Z</time>
      </trkpt>
      <trkpt lat="45.84825" lon="2.58278">
        <ele>661</ele>
        <time>2017-03-24T17:12:06Z</time>
      </trkpt>
      <trkpt lat="45.84824" lon="2.58238">
        <ele>660</ele>
        <time>2017-03-24T17:11:46Z</time>
      </trkpt>
      <trkpt lat="45.84841" lon="2.58191">
        <ele>661</ele>
        <time>2017-03-24T17:11:26Z</time>
      </trkpt>
      <trkpt lat="45.84849" lon="2.58141">
        <ele>662</ele>
        <time>2017-03-24T17:11:06Z</time>
      </trkpt>
      <trkpt lat="45.84899" lon="2.58058">
        <ele>672</ele>
        <time>2017-03-24T17:10:46Z</time>
      </trkpt>
      <trkpt lat="45.84867" lon="2.58026">
        <ele>673</ele>
        <time>2017-03-24T17:10:26Z</time>
      </trkpt>
      <trkpt lat="45.84861" lon="2.57997">
        <ele>677</ele>
        <time>2017-03-24T17:10:06Z</time>
      </trkpt>
      <trkpt lat="45.84887" lon="2.57871">
        <ele>682</ele>
        <time>2017-03-24T17:09:46Z</time>
      </trkpt>
      <trkpt lat="45.84901" lon="2.57821">
        <ele>683</ele>
        <time>2017-03-24T17:09:26Z</time>
      </trkpt>
      <trkpt lat="45.84929" lon="2.57678">
        <ele>685</ele>
        <time>2017-03-24T17:09:06Z</time>
      </trkpt>
      <trkpt lat="45.8495" lon="2.57639">
        <ele>685</ele>
        <time>2017-03-24T17:08:46Z</time>
      </trkpt>
      <trkpt lat="45.84974" lon="2.57524">
        <ele>684</ele>
        <time>2017-03-24T17:08:26Z</time>
      </trkpt>
      <trkpt lat="45.84973" lon="2.57465">
        <ele>682</ele>
        <time>2017-03-24T17:08:06Z</time>
      </trkpt>
      <trkpt lat="45.84997" lon="2.57392">
        <ele>683</ele>
        <time>2017-03-24T17:07:46Z</time>
      </trkpt>
      <trkpt lat="45.85045" lon="2.57289">
        <ele>684</ele>
        <time>2017-03-24T17:07:26Z</time>
      </trkpt>
      <trkpt lat="45.85046" lon="2.57241">
        <ele>679</ele>
        <time>2017-03-24T17:07:06Z</time>
      </trkpt>
      <trkpt lat="45.85083" lon="2.57116">
        <ele>681</ele>
        <time>2017-03-24T17:06:46Z</time>
      </trkpt>
      <trkpt lat="45.85121" lon="2.57038">
        <ele>682</ele>
        <time>2017-03-24T17:06:26Z</time>
      </trkpt>
      <trkpt lat="45.85139" lon="2.56984">
        <ele>681</ele>
        <time>2017-03-24T17:06:06Z</time>
      </trkpt>
      <trkpt lat="45.85161" lon="2.56867">
        <ele>675</ele>
        <time>2017-03-24T17:05:46Z</time>
      </trkpt>
      <trkpt lat="45.85212" lon="2.56663">
        <ele>668</ele>
        <time>2017-03-24T17:05:46Z</time>
      </trkpt>
      <trkpt lat="45.85262" lon="2.5658">
        <ele>668</ele>
        <time>2017-03-24T17:04:26Z</time>
      </trkpt>
      <trkpt lat="45.8525" lon="2.56499">
        <ele>666</ele>
        <time>2017-03-24T17:04:06Z</time>
      </trkpt>
      <trkpt lat="45.85239" lon="2.56362">
        <ele>669</ele>
        <time>2017-03-24T17:03:46Z</time>
      </trkpt>
      <trkpt lat="45.85239" lon="2.56362">
        <ele>669</ele>
        <time>2017-03-24T17:03:26Z</time>
      </trkpt>
      <trkpt lat="45.85239" lon="2.56349">
        <ele>669</ele>
        <time>2017-03-24T17:03:06Z</time>
      </trkpt>
      <trkpt lat="45.85239" lon="2.56349">
        <ele>669</ele>
        <time>2017-03-24T17:02:46Z</time>
      </trkpt>
      <trkpt lat="45.85196" lon="2.56298">
        <ele>672</ele>
        <time>2017-03-24T17:02:26Z</time>
      </trkpt>
      <trkpt lat="45.85084" lon="2.56353">
        <ele>669.2</ele>
        <time>2017-03-24T17:02:06Z</time>
      </trkpt>
      <trkpt lat="45.84874" lon="2.56178">
        <ele>682.8</ele>
        <time>2017-03-24T17:01:46Z</time>
      </trkpt>
      <trkpt lat="45.84446" lon="2.56003">
        <ele>693.5</ele>
        <time>2017-03-24T17:01:26Z</time>
      </trkpt>
      <trkpt lat="45.84468" lon="2.56167">
        <ele>690</ele>
        <time>2017-03-24T17:01:06Z</time>
      </trkpt>
      <trkpt lat="45.8444" lon="2.55994">
        <ele>694.4</ele>
        <time>2017-03-24T17:00:46Z</time>
      </trkpt>
    </trkseg>
  </trk>
</gpx>